<?xml version="1.0" encoding="UTF-8" standalone="no" ?>
<gpx xmlns="http://www.topografix.com/GPX/1/1" xmlns:xsi="http://www.w3.org/2001/XMLSchema-instance" xsi:schemaLocation="http://www.topografix.com/GPX/1/1 http://www.topografix.com/GPX/1/1/gpx.xsd" version="1.1" creator="VisuGPX - https://www.visugpx.com">
  <metadata>
    <name>170111HR3ROBJeunes</name>
    <desc><![CDATA[excellente et tres bonne sortie]]></desc>
  </metadata>
  <trk>
    <name><![CDATA[170111HR3ROBJeunes]]></name>
    <trkseg>
      <trkpt lat="43.4158" lon="6.07035">
        <ele>202.19999694824</ele>
        <time>2017-01-11T13:02:42Z</time>
      </trkpt>
      <trkpt lat="43.41581" lon="6.07035">
        <ele>202.39999389648</ele>
        <time>2017-01-11T13:02:43Z</time>
      </trkpt>
      <trkpt lat="43.4158" lon="6.07033">
        <ele>201.80000305176</ele>
        <time>2017-01-11T13:03:24Z</time>
      </trkpt>
      <trkpt lat="43.4158" lon="6.07035">
        <ele>202</ele>
        <time>2017-01-11T13:03:57Z</time>
      </trkpt>
      <trkpt lat="43.4158" lon="6.07035">
        <ele>202</ele>
        <time>2017-01-11T13:04:23Z</time>
      </trkpt>
      <trkpt lat="43.41581" lon="6.07036">
        <ele>202</ele>
        <time>2017-01-11T13:04:50Z</time>
      </trkpt>
      <trkpt lat="43.41581" lon="6.07036">
        <ele>202</ele>
        <time>2017-01-11T13:04:56Z</time>
      </trkpt>
      <trkpt lat="43.41581" lon="6.07036">
        <ele>202</ele>
        <time>2017-01-11T13:05:13Z</time>
      </trkpt>
      <trkpt lat="43.41581" lon="6.07037">
        <ele>202</ele>
        <time>2017-01-11T13:05:17Z</time>
      </trkpt>
      <trkpt lat="43.41582" lon="6.07048">
        <ele>201.39999389648</ele>
        <time>2017-01-11T13:05:33Z</time>
      </trkpt>
      <trkpt lat="43.41586" lon="6.07076">
        <ele>201.19999694824</ele>
        <time>2017-01-11T13:05:41Z</time>
      </trkpt>
      <trkpt lat="43.41584" lon="6.07101">
        <ele>200.80000305176</ele>
        <time>2017-01-11T13:05:49Z</time>
      </trkpt>
      <trkpt lat="43.41558" lon="6.07109">
        <ele>200.80000305176</ele>
        <time>2017-01-11T13:05:56Z</time>
      </trkpt>
      <trkpt lat="43.41551" lon="6.07108">
        <ele>200.80000305176</ele>
        <time>2017-01-11T13:05:58Z</time>
      </trkpt>
      <trkpt lat="43.41545" lon="6.07077">
        <ele>201.19999694824</ele>
        <time>2017-01-11T13:06:08Z</time>
      </trkpt>
      <trkpt lat="43.41532" lon="6.07071">
        <ele>201</ele>
        <time>2017-01-11T13:06:15Z</time>
      </trkpt>
      <trkpt lat="43.41513" lon="6.07076">
        <ele>200</ele>
        <time>2017-01-11T13:06:21Z</time>
      </trkpt>
      <trkpt lat="43.41494" lon="6.07078">
        <ele>199.60000610352</ele>
        <time>2017-01-11T13:06:27Z</time>
      </trkpt>
      <trkpt lat="43.41488" lon="6.07075">
        <ele>199.39999389648</ele>
        <time>2017-01-11T13:06:29Z</time>
      </trkpt>
      <trkpt lat="43.41471" lon="6.07069">
        <ele>199</ele>
        <time>2017-01-11T13:06:35Z</time>
      </trkpt>
      <trkpt lat="43.4147" lon="6.07068">
        <ele>199</ele>
        <time>2017-01-11T13:06:36Z</time>
      </trkpt>
      <trkpt lat="43.41467" lon="6.07064">
        <ele>198.80000305176</ele>
        <time>2017-01-11T13:06:39Z</time>
      </trkpt>
      <trkpt lat="43.41466" lon="6.07064">
        <ele>198.60000610352</ele>
        <time>2017-01-11T13:06:42Z</time>
      </trkpt>
      <trkpt lat="43.41466" lon="6.07064">
        <ele>198.60000610352</ele>
        <time>2017-01-11T13:06:45Z</time>
      </trkpt>
      <trkpt lat="43.41466" lon="6.07063">
        <ele>198.60000610352</ele>
        <time>2017-01-11T13:06:49Z</time>
      </trkpt>
      <trkpt lat="43.41466" lon="6.0706">
        <ele>198.60000610352</ele>
        <time>2017-01-11T13:06:51Z</time>
      </trkpt>
      <trkpt lat="43.41469" lon="6.07054">
        <ele>198.60000610352</ele>
        <time>2017-01-11T13:06:53Z</time>
      </trkpt>
      <trkpt lat="43.41479" lon="6.07034">
        <ele>198.80000305176</ele>
        <time>2017-01-11T13:06:58Z</time>
      </trkpt>
      <trkpt lat="43.41485" lon="6.07019">
        <ele>198.80000305176</ele>
        <time>2017-01-11T13:07:01Z</time>
      </trkpt>
      <trkpt lat="43.41493" lon="6.06999">
        <ele>198.80000305176</ele>
        <time>2017-01-11T13:07:05Z</time>
      </trkpt>
      <trkpt lat="43.41495" lon="6.06983">
        <ele>199</ele>
        <time>2017-01-11T13:07:08Z</time>
      </trkpt>
      <trkpt lat="43.41491" lon="6.06966">
        <ele>199.39999389648</ele>
        <time>2017-01-11T13:07:11Z</time>
      </trkpt>
      <trkpt lat="43.41484" lon="6.06951">
        <ele>199.80000305176</ele>
        <time>2017-01-11T13:07:14Z</time>
      </trkpt>
      <trkpt lat="43.41481" lon="6.06947">
        <ele>200</ele>
        <time>2017-01-11T13:07:15Z</time>
      </trkpt>
      <trkpt lat="43.41469" lon="6.06924">
        <ele>200.39999389648</ele>
        <time>2017-01-11T13:07:20Z</time>
      </trkpt>
      <trkpt lat="43.41473" lon="6.06911">
        <ele>200.60000610352</ele>
        <time>2017-01-11T13:07:23Z</time>
      </trkpt>
      <trkpt lat="43.41477" lon="6.06896">
        <ele>201</ele>
        <time>2017-01-11T13:07:27Z</time>
      </trkpt>
      <trkpt lat="43.41476" lon="6.06891">
        <ele>201</ele>
        <time>2017-01-11T13:07:33Z</time>
      </trkpt>
      <trkpt lat="43.41476" lon="6.0689">
        <ele>201.19999694824</ele>
        <time>2017-01-11T13:07:35Z</time>
      </trkpt>
      <trkpt lat="43.41476" lon="6.06887">
        <ele>201.39999389648</ele>
        <time>2017-01-11T13:07:37Z</time>
      </trkpt>
      <trkpt lat="43.41476" lon="6.06883">
        <ele>201.60000610352</ele>
        <time>2017-01-11T13:07:41Z</time>
      </trkpt>
      <trkpt lat="43.41477" lon="6.06876">
        <ele>201.60000610352</ele>
        <time>2017-01-11T13:07:43Z</time>
      </trkpt>
      <trkpt lat="43.41478" lon="6.06831">
        <ele>201.19999694824</ele>
        <time>2017-01-11T13:07:54Z</time>
      </trkpt>
      <trkpt lat="43.41481" lon="6.06823">
        <ele>201</ele>
        <time>2017-01-11T13:07:56Z</time>
      </trkpt>
      <trkpt lat="43.41497" lon="6.06758">
        <ele>201.39999389648</ele>
        <time>2017-01-11T13:08:08Z</time>
      </trkpt>
      <trkpt lat="43.41499" lon="6.06733">
        <ele>202.19999694824</ele>
        <time>2017-01-11T13:08:13Z</time>
      </trkpt>
      <trkpt lat="43.415" lon="6.06686">
        <ele>203.19999694824</ele>
        <time>2017-01-11T13:08:22Z</time>
      </trkpt>
      <trkpt lat="43.41501" lon="6.06681">
        <ele>203.19999694824</ele>
        <time>2017-01-11T13:08:23Z</time>
      </trkpt>
      <trkpt lat="43.41511" lon="6.06614">
        <ele>203.80000305176</ele>
        <time>2017-01-11T13:08:35Z</time>
      </trkpt>
      <trkpt lat="43.41518" lon="6.06573">
        <ele>204.19999694824</ele>
        <time>2017-01-11T13:08:42Z</time>
      </trkpt>
      <trkpt lat="43.41529" lon="6.06513">
        <ele>204.39999389648</ele>
        <time>2017-01-11T13:08:52Z</time>
      </trkpt>
      <trkpt lat="43.41544" lon="6.06478">
        <ele>205.60000610352</ele>
        <time>2017-01-11T13:08:59Z</time>
      </trkpt>
      <trkpt lat="43.41548" lon="6.06468">
        <ele>206</ele>
        <time>2017-01-11T13:09:01Z</time>
      </trkpt>
      <trkpt lat="43.41548" lon="6.06456">
        <ele>206</ele>
        <time>2017-01-11T13:09:03Z</time>
      </trkpt>
      <trkpt lat="43.41547" lon="6.06438">
        <ele>206</ele>
        <time>2017-01-11T13:09:06Z</time>
      </trkpt>
      <trkpt lat="43.41551" lon="6.06409">
        <ele>206.60000610352</ele>
        <time>2017-01-11T13:09:11Z</time>
      </trkpt>
      <trkpt lat="43.41554" lon="6.06392">
        <ele>207.60000610352</ele>
        <time>2017-01-11T13:09:14Z</time>
      </trkpt>
      <trkpt lat="43.41557" lon="6.06381">
        <ele>208.19999694824</ele>
        <time>2017-01-11T13:09:16Z</time>
      </trkpt>
      <trkpt lat="43.4156" lon="6.06365">
        <ele>209</ele>
        <time>2017-01-11T13:09:19Z</time>
      </trkpt>
      <trkpt lat="43.41563" lon="6.06352">
        <ele>210</ele>
        <time>2017-01-11T13:09:22Z</time>
      </trkpt>
      <trkpt lat="43.41572" lon="6.06335">
        <ele>211.60000610352</ele>
        <time>2017-01-11T13:09:27Z</time>
      </trkpt>
      <trkpt lat="43.41576" lon="6.06329">
        <ele>212.19999694824</ele>
        <time>2017-01-11T13:09:29Z</time>
      </trkpt>
      <trkpt lat="43.41587" lon="6.06312">
        <ele>213</ele>
        <time>2017-01-11T13:09:35Z</time>
      </trkpt>
      <trkpt lat="43.41588" lon="6.06309">
        <ele>213.19999694824</ele>
        <time>2017-01-11T13:09:36Z</time>
      </trkpt>
      <trkpt lat="43.41589" lon="6.06284">
        <ele>214.19999694824</ele>
        <time>2017-01-11T13:09:44Z</time>
      </trkpt>
      <trkpt lat="43.41587" lon="6.06269">
        <ele>215</ele>
        <time>2017-01-11T13:09:50Z</time>
      </trkpt>
      <trkpt lat="43.41593" lon="6.0626">
        <ele>215.19999694824</ele>
        <time>2017-01-11T13:09:54Z</time>
      </trkpt>
      <trkpt lat="43.41601" lon="6.06253">
        <ele>215.60000610352</ele>
        <time>2017-01-11T13:09:59Z</time>
      </trkpt>
      <trkpt lat="43.41603" lon="6.0625">
        <ele>216</ele>
        <time>2017-01-11T13:10:05Z</time>
      </trkpt>
      <trkpt lat="43.41603" lon="6.06242">
        <ele>216</ele>
        <time>2017-01-11T13:10:11Z</time>
      </trkpt>
      <trkpt lat="43.41609" lon="6.06217">
        <ele>216.19999694824</ele>
        <time>2017-01-11T13:10:18Z</time>
      </trkpt>
      <trkpt lat="43.4161" lon="6.06208">
        <ele>216</ele>
        <time>2017-01-11T13:10:21Z</time>
      </trkpt>
      <trkpt lat="43.41613" lon="6.06205">
        <ele>216</ele>
        <time>2017-01-11T13:10:23Z</time>
      </trkpt>
      <trkpt lat="43.41619" lon="6.0621">
        <ele>216.39999389648</ele>
        <time>2017-01-11T13:10:26Z</time>
      </trkpt>
      <trkpt lat="43.41635" lon="6.0623">
        <ele>217.39999389648</ele>
        <time>2017-01-11T13:10:33Z</time>
      </trkpt>
      <trkpt lat="43.41665" lon="6.06244">
        <ele>218.39999389648</ele>
        <time>2017-01-11T13:10:43Z</time>
      </trkpt>
      <trkpt lat="43.41719" lon="6.06248">
        <ele>218.80000305176</ele>
        <time>2017-01-11T13:11:00Z</time>
      </trkpt>
      <trkpt lat="43.41743" lon="6.06249">
        <ele>219.39999389648</ele>
        <time>2017-01-11T13:11:07Z</time>
      </trkpt>
      <trkpt lat="43.41766" lon="6.06257">
        <ele>220.80000305176</ele>
        <time>2017-01-11T13:11:14Z</time>
      </trkpt>
      <trkpt lat="43.41779" lon="6.06263">
        <ele>221.39999389648</ele>
        <time>2017-01-11T13:11:18Z</time>
      </trkpt>
      <trkpt lat="43.41787" lon="6.0627">
        <ele>221.80000305176</ele>
        <time>2017-01-11T13:11:21Z</time>
      </trkpt>
      <trkpt lat="43.41798" lon="6.0628">
        <ele>222.80000305176</ele>
        <time>2017-01-11T13:11:25Z</time>
      </trkpt>
      <trkpt lat="43.41821" lon="6.0629">
        <ele>223.80000305176</ele>
        <time>2017-01-11T13:11:32Z</time>
      </trkpt>
      <trkpt lat="43.41837" lon="6.0629">
        <ele>224.39999389648</ele>
        <time>2017-01-11T13:11:37Z</time>
      </trkpt>
      <trkpt lat="43.41845" lon="6.0629">
        <ele>225.19999694824</ele>
        <time>2017-01-11T13:11:40Z</time>
      </trkpt>
      <trkpt lat="43.41857" lon="6.0629">
        <ele>226</ele>
        <time>2017-01-11T13:11:44Z</time>
      </trkpt>
      <trkpt lat="43.41859" lon="6.0629">
        <ele>226.19999694824</ele>
        <time>2017-01-11T13:11:45Z</time>
      </trkpt>
      <trkpt lat="43.4187" lon="6.0629">
        <ele>227.19999694824</ele>
        <time>2017-01-11T13:11:49Z</time>
      </trkpt>
      <trkpt lat="43.41884" lon="6.0629">
        <ele>228.19999694824</ele>
        <time>2017-01-11T13:11:54Z</time>
      </trkpt>
      <trkpt lat="43.41898" lon="6.0629">
        <ele>229.39999389648</ele>
        <time>2017-01-11T13:12:00Z</time>
      </trkpt>
      <trkpt lat="43.41916" lon="6.0629">
        <ele>230.39999389648</ele>
        <time>2017-01-11T13:12:07Z</time>
      </trkpt>
      <trkpt lat="43.41936" lon="6.06285">
        <ele>231.60000610352</ele>
        <time>2017-01-11T13:12:16Z</time>
      </trkpt>
      <trkpt lat="43.41959" lon="6.06278">
        <ele>232.60000610352</ele>
        <time>2017-01-11T13:12:25Z</time>
      </trkpt>
      <trkpt lat="43.41978" lon="6.06273">
        <ele>233.80000305176</ele>
        <time>2017-01-11T13:12:33Z</time>
      </trkpt>
      <trkpt lat="43.41996" lon="6.06268">
        <ele>236.19999694824</ele>
        <time>2017-01-11T13:12:41Z</time>
      </trkpt>
      <trkpt lat="43.42003" lon="6.06265">
        <ele>237.19999694824</ele>
        <time>2017-01-11T13:12:45Z</time>
      </trkpt>
      <trkpt lat="43.42014" lon="6.06261">
        <ele>238.60000610352</ele>
        <time>2017-01-11T13:12:51Z</time>
      </trkpt>
      <trkpt lat="43.42024" lon="6.06257">
        <ele>239.60000610352</ele>
        <time>2017-01-11T13:12:56Z</time>
      </trkpt>
      <trkpt lat="43.42029" lon="6.06255">
        <ele>240.60000610352</ele>
        <time>2017-01-11T13:12:59Z</time>
      </trkpt>
      <trkpt lat="43.42037" lon="6.06253">
        <ele>241.60000610352</ele>
        <time>2017-01-11T13:13:03Z</time>
      </trkpt>
      <trkpt lat="43.42047" lon="6.06249">
        <ele>242.80000305176</ele>
        <time>2017-01-11T13:13:09Z</time>
      </trkpt>
      <trkpt lat="43.42056" lon="6.06246">
        <ele>244</ele>
        <time>2017-01-11T13:13:14Z</time>
      </trkpt>
      <trkpt lat="43.42065" lon="6.06244">
        <ele>245</ele>
        <time>2017-01-11T13:13:19Z</time>
      </trkpt>
      <trkpt lat="43.42082" lon="6.06237">
        <ele>247.19999694824</ele>
        <time>2017-01-11T13:13:28Z</time>
      </trkpt>
      <trkpt lat="43.42089" lon="6.06234">
        <ele>248.39999389648</ele>
        <time>2017-01-11T13:13:32Z</time>
      </trkpt>
      <trkpt lat="43.42113" lon="6.06226">
        <ele>250.60000610352</ele>
        <time>2017-01-11T13:13:46Z</time>
      </trkpt>
      <trkpt lat="43.42129" lon="6.06223">
        <ele>251.80000305176</ele>
        <time>2017-01-11T13:13:54Z</time>
      </trkpt>
      <trkpt lat="43.42142" lon="6.06218">
        <ele>252.80000305176</ele>
        <time>2017-01-11T13:14:02Z</time>
      </trkpt>
      <trkpt lat="43.42143" lon="6.06219">
        <ele>253</ele>
        <time>2017-01-11T13:14:06Z</time>
      </trkpt>
      <trkpt lat="43.42143" lon="6.06219">
        <ele>253</ele>
        <time>2017-01-11T13:14:11Z</time>
      </trkpt>
      <trkpt lat="43.42147" lon="6.06217">
        <ele>253</ele>
        <time>2017-01-11T13:14:16Z</time>
      </trkpt>
      <trkpt lat="43.42148" lon="6.06216">
        <ele>253</ele>
        <time>2017-01-11T13:14:17Z</time>
      </trkpt>
      <trkpt lat="43.42152" lon="6.06204">
        <ele>253</ele>
        <time>2017-01-11T13:14:24Z</time>
      </trkpt>
      <trkpt lat="43.42151" lon="6.06199">
        <ele>253.19999694824</ele>
        <time>2017-01-11T13:14:27Z</time>
      </trkpt>
      <trkpt lat="43.42149" lon="6.06193">
        <ele>253.19999694824</ele>
        <time>2017-01-11T13:14:30Z</time>
      </trkpt>
      <trkpt lat="43.42144" lon="6.06175">
        <ele>252.60000610352</ele>
        <time>2017-01-11T13:14:35Z</time>
      </trkpt>
      <trkpt lat="43.42134" lon="6.06149">
        <ele>251.60000610352</ele>
        <time>2017-01-11T13:14:40Z</time>
      </trkpt>
      <trkpt lat="43.42124" lon="6.06112">
        <ele>250.60000610352</ele>
        <time>2017-01-11T13:14:46Z</time>
      </trkpt>
      <trkpt lat="43.42119" lon="6.06088">
        <ele>251.80000305176</ele>
        <time>2017-01-11T13:14:51Z</time>
      </trkpt>
      <trkpt lat="43.42116" lon="6.06065">
        <ele>253</ele>
        <time>2017-01-11T13:14:56Z</time>
      </trkpt>
      <trkpt lat="43.42114" lon="6.06052">
        <ele>254</ele>
        <time>2017-01-11T13:14:59Z</time>
      </trkpt>
      <trkpt lat="43.42113" lon="6.06047">
        <ele>254</ele>
        <time>2017-01-11T13:15:00Z</time>
      </trkpt>
      <trkpt lat="43.42101" lon="6.05984">
        <ele>255</ele>
        <time>2017-01-11T13:15:13Z</time>
      </trkpt>
      <trkpt lat="43.42082" lon="6.05913">
        <ele>254.19999694824</ele>
        <time>2017-01-11T13:15:24Z</time>
      </trkpt>
      <trkpt lat="43.42065" lon="6.05848">
        <ele>253</ele>
        <time>2017-01-11T13:15:33Z</time>
      </trkpt>
      <trkpt lat="43.42063" lon="6.0584">
        <ele>252.80000305176</ele>
        <time>2017-01-11T13:15:34Z</time>
      </trkpt>
      <trkpt lat="43.42059" lon="6.05821">
        <ele>251.80000305176</ele>
        <time>2017-01-11T13:15:36Z</time>
      </trkpt>
      <trkpt lat="43.42054" lon="6.05799">
        <ele>250</ele>
        <time>2017-01-11T13:15:38Z</time>
      </trkpt>
      <trkpt lat="43.42051" lon="6.05778">
        <ele>249</ele>
        <time>2017-01-11T13:15:40Z</time>
      </trkpt>
      <trkpt lat="43.42036" lon="6.05697">
        <ele>248.19999694824</ele>
        <time>2017-01-11T13:15:48Z</time>
      </trkpt>
      <trkpt lat="43.42023" lon="6.05628">
        <ele>250</ele>
        <time>2017-01-11T13:15:56Z</time>
      </trkpt>
      <trkpt lat="43.42019" lon="6.05606">
        <ele>251.39999389648</ele>
        <time>2017-01-11T13:15:59Z</time>
      </trkpt>
      <trkpt lat="43.42017" lon="6.05593">
        <ele>252.60000610352</ele>
        <time>2017-01-11T13:16:01Z</time>
      </trkpt>
      <trkpt lat="43.42011" lon="6.05547">
        <ele>255.19999694824</ele>
        <time>2017-01-11T13:16:08Z</time>
      </trkpt>
      <trkpt lat="43.42009" lon="6.0553">
        <ele>256.20001220703</ele>
        <time>2017-01-11T13:16:11Z</time>
      </trkpt>
      <trkpt lat="43.42008" lon="6.05525">
        <ele>256.60000610352</ele>
        <time>2017-01-11T13:16:12Z</time>
      </trkpt>
      <trkpt lat="43.42007" lon="6.05515">
        <ele>257.39999389648</ele>
        <time>2017-01-11T13:16:14Z</time>
      </trkpt>
      <trkpt lat="43.42006" lon="6.05507">
        <ele>258</ele>
        <time>2017-01-11T13:16:16Z</time>
      </trkpt>
      <trkpt lat="43.42005" lon="6.055">
        <ele>258.20001220703</ele>
        <time>2017-01-11T13:16:18Z</time>
      </trkpt>
      <trkpt lat="43.42003" lon="6.05494">
        <ele>258.39999389648</ele>
        <time>2017-01-11T13:16:20Z</time>
      </trkpt>
      <trkpt lat="43.41998" lon="6.05465">
        <ele>259.39999389648</ele>
        <time>2017-01-11T13:16:28Z</time>
      </trkpt>
      <trkpt lat="43.41991" lon="6.05442">
        <ele>258.60000610352</ele>
        <time>2017-01-11T13:16:33Z</time>
      </trkpt>
      <trkpt lat="43.4199" lon="6.05436">
        <ele>258.20001220703</ele>
        <time>2017-01-11T13:16:34Z</time>
      </trkpt>
      <trkpt lat="43.41985" lon="6.05416">
        <ele>257</ele>
        <time>2017-01-11T13:16:37Z</time>
      </trkpt>
      <trkpt lat="43.41979" lon="6.05393">
        <ele>255.60000610352</ele>
        <time>2017-01-11T13:16:40Z</time>
      </trkpt>
      <trkpt lat="43.41972" lon="6.05367">
        <ele>254.60000610352</ele>
        <time>2017-01-11T13:16:43Z</time>
      </trkpt>
      <trkpt lat="43.41965" lon="6.05338">
        <ele>253.19999694824</ele>
        <time>2017-01-11T13:16:46Z</time>
      </trkpt>
      <trkpt lat="43.41959" lon="6.05307">
        <ele>251.80000305176</ele>
        <time>2017-01-11T13:16:49Z</time>
      </trkpt>
      <trkpt lat="43.41954" lon="6.05286">
        <ele>250.60000610352</ele>
        <time>2017-01-11T13:16:51Z</time>
      </trkpt>
      <trkpt lat="43.41949" lon="6.05264">
        <ele>249.19999694824</ele>
        <time>2017-01-11T13:16:53Z</time>
      </trkpt>
      <trkpt lat="43.41946" lon="6.05241">
        <ele>248.19999694824</ele>
        <time>2017-01-11T13:16:55Z</time>
      </trkpt>
      <trkpt lat="43.41943" lon="6.05217">
        <ele>247</ele>
        <time>2017-01-11T13:16:57Z</time>
      </trkpt>
      <trkpt lat="43.41942" lon="6.05194">
        <ele>245.39999389648</ele>
        <time>2017-01-11T13:16:59Z</time>
      </trkpt>
      <trkpt lat="43.4194" lon="6.05167">
        <ele>244</ele>
        <time>2017-01-11T13:17:02Z</time>
      </trkpt>
      <trkpt lat="43.4194" lon="6.0516">
        <ele>243.60000610352</ele>
        <time>2017-01-11T13:17:03Z</time>
      </trkpt>
      <trkpt lat="43.41942" lon="6.05153">
        <ele>243.60000610352</ele>
        <time>2017-01-11T13:17:04Z</time>
      </trkpt>
      <trkpt lat="43.41945" lon="6.05148">
        <ele>243.39999389648</ele>
        <time>2017-01-11T13:17:05Z</time>
      </trkpt>
      <trkpt lat="43.41952" lon="6.05142">
        <ele>243.39999389648</ele>
        <time>2017-01-11T13:17:07Z</time>
      </trkpt>
      <trkpt lat="43.41982" lon="6.05129">
        <ele>245</ele>
        <time>2017-01-11T13:17:15Z</time>
      </trkpt>
      <trkpt lat="43.42008" lon="6.05125">
        <ele>246.19999694824</ele>
        <time>2017-01-11T13:17:22Z</time>
      </trkpt>
      <trkpt lat="43.42023" lon="6.05122">
        <ele>246.39999389648</ele>
        <time>2017-01-11T13:17:26Z</time>
      </trkpt>
      <trkpt lat="43.42032" lon="6.0512">
        <ele>246.60000610352</ele>
        <time>2017-01-11T13:17:28Z</time>
      </trkpt>
      <trkpt lat="43.42036" lon="6.05119">
        <ele>246.80000305176</ele>
        <time>2017-01-11T13:17:29Z</time>
      </trkpt>
      <trkpt lat="43.42047" lon="6.05115">
        <ele>247.19999694824</ele>
        <time>2017-01-11T13:17:32Z</time>
      </trkpt>
      <trkpt lat="43.42062" lon="6.05113">
        <ele>247.60000610352</ele>
        <time>2017-01-11T13:17:36Z</time>
      </trkpt>
      <trkpt lat="43.42075" lon="6.05111">
        <ele>248.39999389648</ele>
        <time>2017-01-11T13:17:40Z</time>
      </trkpt>
      <trkpt lat="43.42096" lon="6.05113">
        <ele>249.39999389648</ele>
        <time>2017-01-11T13:17:46Z</time>
      </trkpt>
      <trkpt lat="43.42116" lon="6.05113">
        <ele>250.39999389648</ele>
        <time>2017-01-11T13:17:53Z</time>
      </trkpt>
      <trkpt lat="43.42127" lon="6.05117">
        <ele>251.39999389648</ele>
        <time>2017-01-11T13:17:58Z</time>
      </trkpt>
      <trkpt lat="43.42135" lon="6.05124">
        <ele>252.60000610352</ele>
        <time>2017-01-11T13:18:05Z</time>
      </trkpt>
      <trkpt lat="43.42137" lon="6.05126">
        <ele>252.60000610352</ele>
        <time>2017-01-11T13:18:08Z</time>
      </trkpt>
      <trkpt lat="43.42139" lon="6.05127">
        <ele>252.60000610352</ele>
        <time>2017-01-11T13:18:10Z</time>
      </trkpt>
      <trkpt lat="43.42155" lon="6.05148">
        <ele>253.60000610352</ele>
        <time>2017-01-11T13:18:21Z</time>
      </trkpt>
      <trkpt lat="43.42193" lon="6.05173">
        <ele>254.19999694824</ele>
        <time>2017-01-11T13:18:38Z</time>
      </trkpt>
      <trkpt lat="43.42205" lon="6.05181">
        <ele>254.80000305176</ele>
        <time>2017-01-11T13:18:43Z</time>
      </trkpt>
      <trkpt lat="43.42209" lon="6.05183">
        <ele>255.19999694824</ele>
        <time>2017-01-11T13:18:45Z</time>
      </trkpt>
      <trkpt lat="43.42224" lon="6.05191">
        <ele>256</ele>
        <time>2017-01-11T13:18:51Z</time>
      </trkpt>
      <trkpt lat="43.42228" lon="6.05193">
        <ele>256.39999389648</ele>
        <time>2017-01-11T13:18:53Z</time>
      </trkpt>
      <trkpt lat="43.42246" lon="6.05211">
        <ele>257</ele>
        <time>2017-01-11T13:19:02Z</time>
      </trkpt>
      <trkpt lat="43.42254" lon="6.05211">
        <ele>257.60000610352</ele>
        <time>2017-01-11T13:19:05Z</time>
      </trkpt>
      <trkpt lat="43.4226" lon="6.0521">
        <ele>258.20001220703</ele>
        <time>2017-01-11T13:19:08Z</time>
      </trkpt>
      <trkpt lat="43.423" lon="6.05217">
        <ele>259.20001220703</ele>
        <time>2017-01-11T13:19:24Z</time>
      </trkpt>
      <trkpt lat="43.42318" lon="6.0522">
        <ele>260.60000610352</ele>
        <time>2017-01-11T13:19:32Z</time>
      </trkpt>
      <trkpt lat="43.42328" lon="6.05222">
        <ele>261.79998779297</ele>
        <time>2017-01-11T13:19:37Z</time>
      </trkpt>
      <trkpt lat="43.4234" lon="6.05227">
        <ele>263</ele>
        <time>2017-01-11T13:19:43Z</time>
      </trkpt>
      <trkpt lat="43.4235" lon="6.05229">
        <ele>264</ele>
        <time>2017-01-11T13:19:48Z</time>
      </trkpt>
      <trkpt lat="43.42364" lon="6.05227">
        <ele>265</ele>
        <time>2017-01-11T13:19:55Z</time>
      </trkpt>
      <trkpt lat="43.42368" lon="6.05226">
        <ele>265.39999389648</ele>
        <time>2017-01-11T13:19:57Z</time>
      </trkpt>
      <trkpt lat="43.42383" lon="6.05225">
        <ele>266.39999389648</ele>
        <time>2017-01-11T13:20:04Z</time>
      </trkpt>
      <trkpt lat="43.42393" lon="6.05223">
        <ele>267</ele>
        <time>2017-01-11T13:20:09Z</time>
      </trkpt>
      <trkpt lat="43.42404" lon="6.0522">
        <ele>267.39999389648</ele>
        <time>2017-01-11T13:20:14Z</time>
      </trkpt>
      <trkpt lat="43.42418" lon="6.05218">
        <ele>267.60000610352</ele>
        <time>2017-01-11T13:20:21Z</time>
      </trkpt>
      <trkpt lat="43.42428" lon="6.05218">
        <ele>267.79998779297</ele>
        <time>2017-01-11T13:20:26Z</time>
      </trkpt>
      <trkpt lat="43.42436" lon="6.05217">
        <ele>268</ele>
        <time>2017-01-11T13:20:30Z</time>
      </trkpt>
      <trkpt lat="43.42448" lon="6.05215">
        <ele>268.39999389648</ele>
        <time>2017-01-11T13:20:36Z</time>
      </trkpt>
      <trkpt lat="43.42458" lon="6.0521">
        <ele>269.79998779297</ele>
        <time>2017-01-11T13:20:41Z</time>
      </trkpt>
      <trkpt lat="43.42464" lon="6.05208">
        <ele>271</ele>
        <time>2017-01-11T13:20:45Z</time>
      </trkpt>
      <trkpt lat="43.42469" lon="6.05208">
        <ele>272.20001220703</ele>
        <time>2017-01-11T13:20:48Z</time>
      </trkpt>
      <trkpt lat="43.42539" lon="6.05218">
        <ele>272.60000610352</ele>
        <time>2017-01-11T13:21:22Z</time>
      </trkpt>
      <trkpt lat="43.42547" lon="6.05215">
        <ele>273.20001220703</ele>
        <time>2017-01-11T13:21:25Z</time>
      </trkpt>
      <trkpt lat="43.42551" lon="6.05213">
        <ele>274.20001220703</ele>
        <time>2017-01-11T13:21:27Z</time>
      </trkpt>
      <trkpt lat="43.42558" lon="6.05211">
        <ele>275.39999389648</ele>
        <time>2017-01-11T13:21:31Z</time>
      </trkpt>
      <trkpt lat="43.42563" lon="6.05212">
        <ele>275.60000610352</ele>
        <time>2017-01-11T13:21:34Z</time>
      </trkpt>
      <trkpt lat="43.42574" lon="6.05215">
        <ele>275.39999389648</ele>
        <time>2017-01-11T13:21:39Z</time>
      </trkpt>
      <trkpt lat="43.42622" lon="6.05252">
        <ele>276.39999389648</ele>
        <time>2017-01-11T13:22:03Z</time>
      </trkpt>
      <trkpt lat="43.42623" lon="6.05253">
        <ele>276.60000610352</ele>
        <time>2017-01-11T13:22:04Z</time>
      </trkpt>
      <trkpt lat="43.42633" lon="6.0526">
        <ele>277.39999389648</ele>
        <time>2017-01-11T13:22:11Z</time>
      </trkpt>
      <trkpt lat="43.42635" lon="6.05261">
        <ele>277.39999389648</ele>
        <time>2017-01-11T13:22:12Z</time>
      </trkpt>
      <trkpt lat="43.42635" lon="6.05262">
        <ele>277.60000610352</ele>
        <time>2017-01-11T13:22:13Z</time>
      </trkpt>
      <trkpt lat="43.42635" lon="6.05262">
        <ele>278</ele>
        <time>2017-01-11T13:22:22Z</time>
      </trkpt>
      <trkpt lat="43.42635" lon="6.05262">
        <ele>278.20001220703</ele>
        <time>2017-01-11T13:22:26Z</time>
      </trkpt>
      <trkpt lat="43.42635" lon="6.05261">
        <ele>278.20001220703</ele>
        <time>2017-01-11T13:22:42Z</time>
      </trkpt>
      <trkpt lat="43.42635" lon="6.05261">
        <ele>278</ele>
        <time>2017-01-11T13:22:45Z</time>
      </trkpt>
      <trkpt lat="43.42635" lon="6.05262">
        <ele>278</ele>
        <time>2017-01-11T13:22:49Z</time>
      </trkpt>
      <trkpt lat="43.42635" lon="6.05262">
        <ele>278</ele>
        <time>2017-01-11T13:22:52Z</time>
      </trkpt>
      <trkpt lat="43.42635" lon="6.05262">
        <ele>278</ele>
        <time>2017-01-11T13:22:58Z</time>
      </trkpt>
      <trkpt lat="43.42635" lon="6.05262">
        <ele>277.79998779297</ele>
        <time>2017-01-11T13:23:04Z</time>
      </trkpt>
      <trkpt lat="43.42636" lon="6.05263">
        <ele>278.20001220703</ele>
        <time>2017-01-11T13:23:17Z</time>
      </trkpt>
      <trkpt lat="43.42636" lon="6.05264">
        <ele>278</ele>
        <time>2017-01-11T13:23:25Z</time>
      </trkpt>
      <trkpt lat="43.42636" lon="6.05265">
        <ele>278</ele>
        <time>2017-01-11T13:23:54Z</time>
      </trkpt>
      <trkpt lat="43.42636" lon="6.05266">
        <ele>278</ele>
        <time>2017-01-11T13:24:07Z</time>
      </trkpt>
      <trkpt lat="43.42636" lon="6.05267">
        <ele>278</ele>
        <time>2017-01-11T13:24:08Z</time>
      </trkpt>
      <trkpt lat="43.42637" lon="6.05271">
        <ele>277.79998779297</ele>
        <time>2017-01-11T13:24:10Z</time>
      </trkpt>
      <trkpt lat="43.42645" lon="6.05279">
        <ele>278.60000610352</ele>
        <time>2017-01-11T13:24:15Z</time>
      </trkpt>
      <trkpt lat="43.42657" lon="6.05295">
        <ele>279.20001220703</ele>
        <time>2017-01-11T13:24:23Z</time>
      </trkpt>
      <trkpt lat="43.42663" lon="6.05304">
        <ele>279.79998779297</ele>
        <time>2017-01-11T13:24:28Z</time>
      </trkpt>
      <trkpt lat="43.42667" lon="6.05309">
        <ele>280</ele>
        <time>2017-01-11T13:24:31Z</time>
      </trkpt>
      <trkpt lat="43.4267" lon="6.05312">
        <ele>280.20001220703</ele>
        <time>2017-01-11T13:24:34Z</time>
      </trkpt>
      <trkpt lat="43.42672" lon="6.05315">
        <ele>280.60000610352</ele>
        <time>2017-01-11T13:24:38Z</time>
      </trkpt>
      <trkpt lat="43.42674" lon="6.05317">
        <ele>280.79998779297</ele>
        <time>2017-01-11T13:24:42Z</time>
      </trkpt>
      <trkpt lat="43.42675" lon="6.05319">
        <ele>281</ele>
        <time>2017-01-11T13:24:53Z</time>
      </trkpt>
      <trkpt lat="43.42677" lon="6.05323">
        <ele>281</ele>
        <time>2017-01-11T13:24:55Z</time>
      </trkpt>
      <trkpt lat="43.42677" lon="6.05326">
        <ele>281.79998779297</ele>
        <time>2017-01-11T13:24:58Z</time>
      </trkpt>
      <trkpt lat="43.42677" lon="6.05326">
        <ele>282.20001220703</ele>
        <time>2017-01-11T13:25:02Z</time>
      </trkpt>
      <trkpt lat="43.42677" lon="6.05326">
        <ele>282.20001220703</ele>
        <time>2017-01-11T13:25:03Z</time>
      </trkpt>
      <trkpt lat="43.42677" lon="6.05326">
        <ele>282.20001220703</ele>
        <time>2017-01-11T13:25:04Z</time>
      </trkpt>
      <trkpt lat="43.42679" lon="6.05327">
        <ele>282</ele>
        <time>2017-01-11T13:25:07Z</time>
      </trkpt>
      <trkpt lat="43.42682" lon="6.05332">
        <ele>283</ele>
        <time>2017-01-11T13:25:18Z</time>
      </trkpt>
      <trkpt lat="43.42685" lon="6.05334">
        <ele>283.20001220703</ele>
        <time>2017-01-11T13:25:26Z</time>
      </trkpt>
      <trkpt lat="43.42687" lon="6.05338">
        <ele>283.20001220703</ele>
        <time>2017-01-11T13:25:29Z</time>
      </trkpt>
      <trkpt lat="43.4269" lon="6.05339">
        <ele>283.20001220703</ele>
        <time>2017-01-11T13:25:31Z</time>
      </trkpt>
      <trkpt lat="43.42709" lon="6.05339">
        <ele>284.20001220703</ele>
        <time>2017-01-11T13:25:40Z</time>
      </trkpt>
      <trkpt lat="43.42719" lon="6.0534">
        <ele>284.79998779297</ele>
        <time>2017-01-11T13:25:44Z</time>
      </trkpt>
      <trkpt lat="43.4272" lon="6.05341">
        <ele>285.20001220703</ele>
        <time>2017-01-11T13:25:45Z</time>
      </trkpt>
      <trkpt lat="43.42723" lon="6.05344">
        <ele>285.79998779297</ele>
        <time>2017-01-11T13:25:47Z</time>
      </trkpt>
      <trkpt lat="43.42723" lon="6.05346">
        <ele>286</ele>
        <time>2017-01-11T13:25:48Z</time>
      </trkpt>
      <trkpt lat="43.42723" lon="6.05356">
        <ele>286</ele>
        <time>2017-01-11T13:25:52Z</time>
      </trkpt>
      <trkpt lat="43.42722" lon="6.05358">
        <ele>286.20001220703</ele>
        <time>2017-01-11T13:25:53Z</time>
      </trkpt>
      <trkpt lat="43.42721" lon="6.05367">
        <ele>286.60000610352</ele>
        <time>2017-01-11T13:25:56Z</time>
      </trkpt>
      <trkpt lat="43.42722" lon="6.05375">
        <ele>287.20001220703</ele>
        <time>2017-01-11T13:25:59Z</time>
      </trkpt>
      <trkpt lat="43.42721" lon="6.05377">
        <ele>287.60000610352</ele>
        <time>2017-01-11T13:26:00Z</time>
      </trkpt>
      <trkpt lat="43.42722" lon="6.05383">
        <ele>288.39999389648</ele>
        <time>2017-01-11T13:26:02Z</time>
      </trkpt>
      <trkpt lat="43.42729" lon="6.05404">
        <ele>289.60000610352</ele>
        <time>2017-01-11T13:26:11Z</time>
      </trkpt>
      <trkpt lat="43.42729" lon="6.05406">
        <ele>290</ele>
        <time>2017-01-11T13:26:12Z</time>
      </trkpt>
      <trkpt lat="43.42731" lon="6.05411">
        <ele>290.39999389648</ele>
        <time>2017-01-11T13:26:14Z</time>
      </trkpt>
      <trkpt lat="43.42733" lon="6.0545">
        <ele>291.79998779297</ele>
        <time>2017-01-11T13:26:30Z</time>
      </trkpt>
      <trkpt lat="43.42728" lon="6.05457">
        <ele>292.79998779297</ele>
        <time>2017-01-11T13:26:33Z</time>
      </trkpt>
      <trkpt lat="43.42727" lon="6.05481">
        <ele>293.79998779297</ele>
        <time>2017-01-11T13:26:42Z</time>
      </trkpt>
      <trkpt lat="43.4273" lon="6.05501">
        <ele>295</ele>
        <time>2017-01-11T13:26:50Z</time>
      </trkpt>
      <trkpt lat="43.42731" lon="6.0552">
        <ele>296.20001220703</ele>
        <time>2017-01-11T13:26:57Z</time>
      </trkpt>
      <trkpt lat="43.42735" lon="6.05537">
        <ele>297.39999389648</ele>
        <time>2017-01-11T13:27:05Z</time>
      </trkpt>
      <trkpt lat="43.42738" lon="6.05546">
        <ele>298.39999389648</ele>
        <time>2017-01-11T13:27:09Z</time>
      </trkpt>
      <trkpt lat="43.42746" lon="6.05567">
        <ele>299.79998779297</ele>
        <time>2017-01-11T13:27:19Z</time>
      </trkpt>
      <trkpt lat="43.42754" lon="6.05577">
        <ele>300.79998779297</ele>
        <time>2017-01-11T13:27:26Z</time>
      </trkpt>
      <trkpt lat="43.42757" lon="6.05585">
        <ele>301.79998779297</ele>
        <time>2017-01-11T13:27:31Z</time>
      </trkpt>
      <trkpt lat="43.42758" lon="6.05597">
        <ele>302.79998779297</ele>
        <time>2017-01-11T13:27:38Z</time>
      </trkpt>
      <trkpt lat="43.42757" lon="6.05599">
        <ele>302.79998779297</ele>
        <time>2017-01-11T13:27:39Z</time>
      </trkpt>
      <trkpt lat="43.42756" lon="6.05607">
        <ele>303.79998779297</ele>
        <time>2017-01-11T13:27:50Z</time>
      </trkpt>
      <trkpt lat="43.42755" lon="6.05607">
        <ele>303.79998779297</ele>
        <time>2017-01-11T13:27:51Z</time>
      </trkpt>
      <trkpt lat="43.42754" lon="6.0561">
        <ele>304.20001220703</ele>
        <time>2017-01-11T13:27:55Z</time>
      </trkpt>
      <trkpt lat="43.42754" lon="6.05612">
        <ele>304.60000610352</ele>
        <time>2017-01-11T13:27:59Z</time>
      </trkpt>
      <trkpt lat="43.42753" lon="6.05614">
        <ele>304.79998779297</ele>
        <time>2017-01-11T13:28:04Z</time>
      </trkpt>
      <trkpt lat="43.42752" lon="6.05614">
        <ele>304.79998779297</ele>
        <time>2017-01-11T13:28:09Z</time>
      </trkpt>
      <trkpt lat="43.42751" lon="6.05617">
        <ele>304.79998779297</ele>
        <time>2017-01-11T13:28:11Z</time>
      </trkpt>
      <trkpt lat="43.4275" lon="6.05619">
        <ele>304.79998779297</ele>
        <time>2017-01-11T13:28:12Z</time>
      </trkpt>
      <trkpt lat="43.42743" lon="6.0563">
        <ele>305.79998779297</ele>
        <time>2017-01-11T13:28:19Z</time>
      </trkpt>
      <trkpt lat="43.42741" lon="6.05631">
        <ele>306</ele>
        <time>2017-01-11T13:28:20Z</time>
      </trkpt>
      <trkpt lat="43.42735" lon="6.05638">
        <ele>306</ele>
        <time>2017-01-11T13:28:24Z</time>
      </trkpt>
      <trkpt lat="43.42727" lon="6.05652">
        <ele>307</ele>
        <time>2017-01-11T13:28:31Z</time>
      </trkpt>
      <trkpt lat="43.42725" lon="6.05659">
        <ele>306.79998779297</ele>
        <time>2017-01-11T13:28:34Z</time>
      </trkpt>
      <trkpt lat="43.42722" lon="6.05665">
        <ele>307.20001220703</ele>
        <time>2017-01-11T13:28:37Z</time>
      </trkpt>
      <trkpt lat="43.4272" lon="6.05669">
        <ele>307.79998779297</ele>
        <time>2017-01-11T13:28:39Z</time>
      </trkpt>
      <trkpt lat="43.42719" lon="6.0567">
        <ele>308.20001220703</ele>
        <time>2017-01-11T13:28:40Z</time>
      </trkpt>
      <trkpt lat="43.42709" lon="6.05679">
        <ele>309.39999389648</ele>
        <time>2017-01-11T13:28:47Z</time>
      </trkpt>
      <trkpt lat="43.42709" lon="6.05685">
        <ele>310.20001220703</ele>
        <time>2017-01-11T13:28:59Z</time>
      </trkpt>
      <trkpt lat="43.42709" lon="6.05685">
        <ele>310.39999389648</ele>
        <time>2017-01-11T13:29:01Z</time>
      </trkpt>
      <trkpt lat="43.42709" lon="6.05685">
        <ele>310.39999389648</ele>
        <time>2017-01-11T13:29:04Z</time>
      </trkpt>
      <trkpt lat="43.42708" lon="6.05684">
        <ele>310.20001220703</ele>
        <time>2017-01-11T13:29:17Z</time>
      </trkpt>
      <trkpt lat="43.42708" lon="6.05684">
        <ele>310.20001220703</ele>
        <time>2017-01-11T13:29:24Z</time>
      </trkpt>
      <trkpt lat="43.42707" lon="6.05684">
        <ele>310.20001220703</ele>
        <time>2017-01-11T13:29:28Z</time>
      </trkpt>
      <trkpt lat="43.42706" lon="6.05688">
        <ele>310.39999389648</ele>
        <time>2017-01-11T13:29:37Z</time>
      </trkpt>
      <trkpt lat="43.42705" lon="6.05693">
        <ele>310.60000610352</ele>
        <time>2017-01-11T13:29:39Z</time>
      </trkpt>
      <trkpt lat="43.42705" lon="6.05697">
        <ele>311.60000610352</ele>
        <time>2017-01-11T13:29:43Z</time>
      </trkpt>
      <trkpt lat="43.42705" lon="6.05698">
        <ele>311.79998779297</ele>
        <time>2017-01-11T13:29:45Z</time>
      </trkpt>
      <trkpt lat="43.42705" lon="6.05698">
        <ele>311.79998779297</ele>
        <time>2017-01-11T13:29:47Z</time>
      </trkpt>
      <trkpt lat="43.42704" lon="6.057">
        <ele>312</ele>
        <time>2017-01-11T13:29:56Z</time>
      </trkpt>
      <trkpt lat="43.42704" lon="6.05703">
        <ele>312.60000610352</ele>
        <time>2017-01-11T13:30:01Z</time>
      </trkpt>
      <trkpt lat="43.42704" lon="6.05703">
        <ele>312.60000610352</ele>
        <time>2017-01-11T13:30:02Z</time>
      </trkpt>
      <trkpt lat="43.42702" lon="6.05705">
        <ele>312.39999389648</ele>
        <time>2017-01-11T13:30:07Z</time>
      </trkpt>
      <trkpt lat="43.42702" lon="6.0571">
        <ele>312.39999389648</ele>
        <time>2017-01-11T13:30:09Z</time>
      </trkpt>
      <trkpt lat="43.42698" lon="6.05719">
        <ele>313.20001220703</ele>
        <time>2017-01-11T13:30:23Z</time>
      </trkpt>
      <trkpt lat="43.42699" lon="6.05728">
        <ele>313.60000610352</ele>
        <time>2017-01-11T13:30:27Z</time>
      </trkpt>
      <trkpt lat="43.4273" lon="6.05736">
        <ele>314.60000610352</ele>
        <time>2017-01-11T13:30:44Z</time>
      </trkpt>
      <trkpt lat="43.42746" lon="6.05737">
        <ele>315.39999389648</ele>
        <time>2017-01-11T13:30:53Z</time>
      </trkpt>
      <trkpt lat="43.42753" lon="6.05738">
        <ele>315.60000610352</ele>
        <time>2017-01-11T13:30:57Z</time>
      </trkpt>
      <trkpt lat="43.42754" lon="6.05737">
        <ele>315.79998779297</ele>
        <time>2017-01-11T13:30:58Z</time>
      </trkpt>
      <trkpt lat="43.42764" lon="6.05727">
        <ele>316</ele>
        <time>2017-01-11T13:31:04Z</time>
      </trkpt>
      <trkpt lat="43.42789" lon="6.05731">
        <ele>316.60000610352</ele>
        <time>2017-01-11T13:31:19Z</time>
      </trkpt>
      <trkpt lat="43.42793" lon="6.05734">
        <ele>316.79998779297</ele>
        <time>2017-01-11T13:31:21Z</time>
      </trkpt>
      <trkpt lat="43.42802" lon="6.0574">
        <ele>317.20001220703</ele>
        <time>2017-01-11T13:31:27Z</time>
      </trkpt>
      <trkpt lat="43.42808" lon="6.05737">
        <ele>317.20001220703</ele>
        <time>2017-01-11T13:31:30Z</time>
      </trkpt>
      <trkpt lat="43.42814" lon="6.05732">
        <ele>317.20001220703</ele>
        <time>2017-01-11T13:31:33Z</time>
      </trkpt>
      <trkpt lat="43.42822" lon="6.05731">
        <ele>317.20001220703</ele>
        <time>2017-01-11T13:31:36Z</time>
      </trkpt>
      <trkpt lat="43.42831" lon="6.05727">
        <ele>317</ele>
        <time>2017-01-11T13:31:40Z</time>
      </trkpt>
      <trkpt lat="43.42834" lon="6.05725">
        <ele>317.60000610352</ele>
        <time>2017-01-11T13:31:44Z</time>
      </trkpt>
      <trkpt lat="43.42835" lon="6.05726">
        <ele>317.60000610352</ele>
        <time>2017-01-11T13:31:48Z</time>
      </trkpt>
      <trkpt lat="43.42835" lon="6.05726">
        <ele>317.60000610352</ele>
        <time>2017-01-11T13:31:51Z</time>
      </trkpt>
      <trkpt lat="43.42835" lon="6.05726">
        <ele>317.60000610352</ele>
        <time>2017-01-11T13:32:00Z</time>
      </trkpt>
      <trkpt lat="43.42836" lon="6.05726">
        <ele>317.60000610352</ele>
        <time>2017-01-11T13:32:16Z</time>
      </trkpt>
      <trkpt lat="43.4284" lon="6.05722">
        <ele>317.39999389648</ele>
        <time>2017-01-11T13:32:19Z</time>
      </trkpt>
      <trkpt lat="43.42844" lon="6.05711">
        <ele>317.20001220703</ele>
        <time>2017-01-11T13:32:23Z</time>
      </trkpt>
      <trkpt lat="43.42849" lon="6.05666">
        <ele>318</ele>
        <time>2017-01-11T13:32:35Z</time>
      </trkpt>
      <trkpt lat="43.42853" lon="6.05633">
        <ele>316.79998779297</ele>
        <time>2017-01-11T13:32:41Z</time>
      </trkpt>
      <trkpt lat="43.42854" lon="6.05615">
        <ele>316.60000610352</ele>
        <time>2017-01-11T13:32:44Z</time>
      </trkpt>
      <trkpt lat="43.4286" lon="6.05545">
        <ele>316.20001220703</ele>
        <time>2017-01-11T13:32:56Z</time>
      </trkpt>
      <trkpt lat="43.42864" lon="6.05539">
        <ele>315.60000610352</ele>
        <time>2017-01-11T13:32:58Z</time>
      </trkpt>
      <trkpt lat="43.42894" lon="6.05552">
        <ele>314.60000610352</ele>
        <time>2017-01-11T13:33:07Z</time>
      </trkpt>
      <trkpt lat="43.42898" lon="6.05553">
        <ele>314.79998779297</ele>
        <time>2017-01-11T13:33:08Z</time>
      </trkpt>
      <trkpt lat="43.42906" lon="6.05552">
        <ele>314.79998779297</ele>
        <time>2017-01-11T13:33:10Z</time>
      </trkpt>
      <trkpt lat="43.42917" lon="6.05544">
        <ele>314.20001220703</ele>
        <time>2017-01-11T13:33:13Z</time>
      </trkpt>
      <trkpt lat="43.42924" lon="6.05539">
        <ele>313.60000610352</ele>
        <time>2017-01-11T13:33:15Z</time>
      </trkpt>
      <trkpt lat="43.42933" lon="6.05531">
        <ele>313.20001220703</ele>
        <time>2017-01-11T13:33:17Z</time>
      </trkpt>
      <trkpt lat="43.42951" lon="6.0552">
        <ele>313.39999389648</ele>
        <time>2017-01-11T13:33:22Z</time>
      </trkpt>
      <trkpt lat="43.42962" lon="6.05516">
        <ele>314.20001220703</ele>
        <time>2017-01-11T13:33:25Z</time>
      </trkpt>
      <trkpt lat="43.42965" lon="6.05515">
        <ele>314.79998779297</ele>
        <time>2017-01-11T13:33:26Z</time>
      </trkpt>
      <trkpt lat="43.4297" lon="6.05512">
        <ele>316</ele>
        <time>2017-01-11T13:33:28Z</time>
      </trkpt>
      <trkpt lat="43.42974" lon="6.05511">
        <ele>317.39999389648</ele>
        <time>2017-01-11T13:33:30Z</time>
      </trkpt>
      <trkpt lat="43.42979" lon="6.05509">
        <ele>318.20001220703</ele>
        <time>2017-01-11T13:33:32Z</time>
      </trkpt>
      <trkpt lat="43.42984" lon="6.05505">
        <ele>319</ele>
        <time>2017-01-11T13:33:35Z</time>
      </trkpt>
      <trkpt lat="43.42987" lon="6.05502">
        <ele>319.79998779297</ele>
        <time>2017-01-11T13:33:37Z</time>
      </trkpt>
      <trkpt lat="43.42993" lon="6.055">
        <ele>320.60000610352</ele>
        <time>2017-01-11T13:33:41Z</time>
      </trkpt>
      <trkpt lat="43.42997" lon="6.05499">
        <ele>321</ele>
        <time>2017-01-11T13:33:44Z</time>
      </trkpt>
      <trkpt lat="43.43002" lon="6.055">
        <ele>321.60000610352</ele>
        <time>2017-01-11T13:33:48Z</time>
      </trkpt>
      <trkpt lat="43.43005" lon="6.05499">
        <ele>321.79998779297</ele>
        <time>2017-01-11T13:33:50Z</time>
      </trkpt>
      <trkpt lat="43.43006" lon="6.05499">
        <ele>322</ele>
        <time>2017-01-11T13:33:51Z</time>
      </trkpt>
      <trkpt lat="43.43009" lon="6.055">
        <ele>322.60000610352</ele>
        <time>2017-01-11T13:33:58Z</time>
      </trkpt>
      <trkpt lat="43.43009" lon="6.055">
        <ele>323</ele>
        <time>2017-01-11T13:34:01Z</time>
      </trkpt>
      <trkpt lat="43.43009" lon="6.055">
        <ele>323</ele>
        <time>2017-01-11T13:34:04Z</time>
      </trkpt>
      <trkpt lat="43.43008" lon="6.055">
        <ele>322.39999389648</ele>
        <time>2017-01-11T13:34:10Z</time>
      </trkpt>
      <trkpt lat="43.43008" lon="6.055">
        <ele>322.60000610352</ele>
        <time>2017-01-11T13:34:16Z</time>
      </trkpt>
      <trkpt lat="43.43008" lon="6.055">
        <ele>322.60000610352</ele>
        <time>2017-01-11T13:34:23Z</time>
      </trkpt>
      <trkpt lat="43.43007" lon="6.055">
        <ele>322.79998779297</ele>
        <time>2017-01-11T13:34:29Z</time>
      </trkpt>
      <trkpt lat="43.43007" lon="6.05499">
        <ele>322.60000610352</ele>
        <time>2017-01-11T13:34:32Z</time>
      </trkpt>
      <trkpt lat="43.43007" lon="6.05499">
        <ele>322.60000610352</ele>
        <time>2017-01-11T13:34:34Z</time>
      </trkpt>
      <trkpt lat="43.43011" lon="6.05502">
        <ele>322.60000610352</ele>
        <time>2017-01-11T13:34:45Z</time>
      </trkpt>
      <trkpt lat="43.43014" lon="6.05506">
        <ele>322.20001220703</ele>
        <time>2017-01-11T13:34:47Z</time>
      </trkpt>
      <trkpt lat="43.43017" lon="6.05511">
        <ele>322</ele>
        <time>2017-01-11T13:34:49Z</time>
      </trkpt>
      <trkpt lat="43.43019" lon="6.05524">
        <ele>321</ele>
        <time>2017-01-11T13:34:52Z</time>
      </trkpt>
      <trkpt lat="43.4302" lon="6.0553">
        <ele>320.79998779297</ele>
        <time>2017-01-11T13:34:53Z</time>
      </trkpt>
      <trkpt lat="43.43022" lon="6.05536">
        <ele>320.60000610352</ele>
        <time>2017-01-11T13:34:54Z</time>
      </trkpt>
      <trkpt lat="43.43027" lon="6.05556">
        <ele>320</ele>
        <time>2017-01-11T13:34:58Z</time>
      </trkpt>
      <trkpt lat="43.43029" lon="6.05565">
        <ele>319.79998779297</ele>
        <time>2017-01-11T13:35:00Z</time>
      </trkpt>
      <trkpt lat="43.43034" lon="6.05579">
        <ele>318.79998779297</ele>
        <time>2017-01-11T13:35:04Z</time>
      </trkpt>
      <trkpt lat="43.43035" lon="6.05594">
        <ele>318</ele>
        <time>2017-01-11T13:35:08Z</time>
      </trkpt>
      <trkpt lat="43.43032" lon="6.05612">
        <ele>317.60000610352</ele>
        <time>2017-01-11T13:35:12Z</time>
      </trkpt>
      <trkpt lat="43.43029" lon="6.05635">
        <ele>316.20001220703</ele>
        <time>2017-01-11T13:35:16Z</time>
      </trkpt>
      <trkpt lat="43.4303" lon="6.05654">
        <ele>315.60000610352</ele>
        <time>2017-01-11T13:35:19Z</time>
      </trkpt>
      <trkpt lat="43.43032" lon="6.05667">
        <ele>315</ele>
        <time>2017-01-11T13:35:21Z</time>
      </trkpt>
      <trkpt lat="43.43033" lon="6.05673">
        <ele>314.39999389648</ele>
        <time>2017-01-11T13:35:22Z</time>
      </trkpt>
      <trkpt lat="43.4303" lon="6.05686">
        <ele>313.60000610352</ele>
        <time>2017-01-11T13:35:24Z</time>
      </trkpt>
      <trkpt lat="43.43026" lon="6.05703">
        <ele>312.79998779297</ele>
        <time>2017-01-11T13:35:27Z</time>
      </trkpt>
      <trkpt lat="43.43025" lon="6.05709">
        <ele>312.39999389648</ele>
        <time>2017-01-11T13:35:28Z</time>
      </trkpt>
      <trkpt lat="43.43022" lon="6.05722">
        <ele>311.60000610352</ele>
        <time>2017-01-11T13:35:30Z</time>
      </trkpt>
      <trkpt lat="43.43019" lon="6.05727">
        <ele>311.20001220703</ele>
        <time>2017-01-11T13:35:31Z</time>
      </trkpt>
      <trkpt lat="43.43016" lon="6.0573">
        <ele>311</ele>
        <time>2017-01-11T13:35:32Z</time>
      </trkpt>
      <trkpt lat="43.43005" lon="6.05765">
        <ele>310.20001220703</ele>
        <time>2017-01-11T13:35:40Z</time>
      </trkpt>
      <trkpt lat="43.43003" lon="6.05783">
        <ele>309.79998779297</ele>
        <time>2017-01-11T13:35:45Z</time>
      </trkpt>
      <trkpt lat="43.43006" lon="6.05795">
        <ele>308.60000610352</ele>
        <time>2017-01-11T13:35:48Z</time>
      </trkpt>
      <trkpt lat="43.43007" lon="6.05802">
        <ele>307.39999389648</ele>
        <time>2017-01-11T13:35:50Z</time>
      </trkpt>
      <trkpt lat="43.43007" lon="6.05808">
        <ele>305.79998779297</ele>
        <time>2017-01-11T13:35:52Z</time>
      </trkpt>
      <trkpt lat="43.43007" lon="6.05815">
        <ele>304.39999389648</ele>
        <time>2017-01-11T13:35:54Z</time>
      </trkpt>
      <trkpt lat="43.43007" lon="6.05838">
        <ele>303.20001220703</ele>
        <time>2017-01-11T13:36:00Z</time>
      </trkpt>
      <trkpt lat="43.43008" lon="6.05841">
        <ele>302.79998779297</ele>
        <time>2017-01-11T13:36:01Z</time>
      </trkpt>
      <trkpt lat="43.43013" lon="6.05846">
        <ele>301.79998779297</ele>
        <time>2017-01-11T13:36:03Z</time>
      </trkpt>
      <trkpt lat="43.43018" lon="6.0585">
        <ele>300.60000610352</ele>
        <time>2017-01-11T13:36:05Z</time>
      </trkpt>
      <trkpt lat="43.43029" lon="6.05854">
        <ele>298</ele>
        <time>2017-01-11T13:36:08Z</time>
      </trkpt>
      <trkpt lat="43.43033" lon="6.05855">
        <ele>297</ele>
        <time>2017-01-11T13:36:09Z</time>
      </trkpt>
      <trkpt lat="43.43037" lon="6.05854">
        <ele>296.39999389648</ele>
        <time>2017-01-11T13:36:10Z</time>
      </trkpt>
      <trkpt lat="43.43041" lon="6.05853">
        <ele>295.79998779297</ele>
        <time>2017-01-11T13:36:11Z</time>
      </trkpt>
      <trkpt lat="43.43051" lon="6.0585">
        <ele>294.20001220703</ele>
        <time>2017-01-11T13:36:14Z</time>
      </trkpt>
      <trkpt lat="43.4306" lon="6.05847">
        <ele>292.79998779297</ele>
        <time>2017-01-11T13:36:16Z</time>
      </trkpt>
      <trkpt lat="43.43067" lon="6.05846">
        <ele>290.79998779297</ele>
        <time>2017-01-11T13:36:18Z</time>
      </trkpt>
      <trkpt lat="43.43071" lon="6.05845">
        <ele>289.39999389648</ele>
        <time>2017-01-11T13:36:19Z</time>
      </trkpt>
      <trkpt lat="43.43074" lon="6.05845">
        <ele>288.20001220703</ele>
        <time>2017-01-11T13:36:20Z</time>
      </trkpt>
      <trkpt lat="43.4308" lon="6.05844">
        <ele>286.60000610352</ele>
        <time>2017-01-11T13:36:22Z</time>
      </trkpt>
      <trkpt lat="43.4309" lon="6.05842">
        <ele>285.20001220703</ele>
        <time>2017-01-11T13:36:25Z</time>
      </trkpt>
      <trkpt lat="43.43095" lon="6.05841">
        <ele>283.60000610352</ele>
        <time>2017-01-11T13:36:27Z</time>
      </trkpt>
      <trkpt lat="43.43101" lon="6.0584">
        <ele>282.60000610352</ele>
        <time>2017-01-11T13:36:30Z</time>
      </trkpt>
      <trkpt lat="43.43108" lon="6.05839">
        <ele>281.39999389648</ele>
        <time>2017-01-11T13:36:33Z</time>
      </trkpt>
      <trkpt lat="43.43114" lon="6.05839">
        <ele>280.20001220703</ele>
        <time>2017-01-11T13:36:35Z</time>
      </trkpt>
      <trkpt lat="43.43121" lon="6.0584">
        <ele>278.79998779297</ele>
        <time>2017-01-11T13:36:37Z</time>
      </trkpt>
      <trkpt lat="43.43128" lon="6.0584">
        <ele>277.39999389648</ele>
        <time>2017-01-11T13:36:39Z</time>
      </trkpt>
      <trkpt lat="43.43136" lon="6.05839">
        <ele>276</ele>
        <time>2017-01-11T13:36:41Z</time>
      </trkpt>
      <trkpt lat="43.43143" lon="6.05838">
        <ele>274.20001220703</ele>
        <time>2017-01-11T13:36:43Z</time>
      </trkpt>
      <trkpt lat="43.43149" lon="6.05837">
        <ele>272.79998779297</ele>
        <time>2017-01-11T13:36:45Z</time>
      </trkpt>
      <trkpt lat="43.43161" lon="6.05831">
        <ele>271.79998779297</ele>
        <time>2017-01-11T13:36:49Z</time>
      </trkpt>
      <trkpt lat="43.43168" lon="6.0583">
        <ele>270.39999389648</ele>
        <time>2017-01-11T13:36:51Z</time>
      </trkpt>
      <trkpt lat="43.43173" lon="6.05829">
        <ele>269.39999389648</ele>
        <time>2017-01-11T13:36:52Z</time>
      </trkpt>
      <trkpt lat="43.43177" lon="6.05827">
        <ele>268.39999389648</ele>
        <time>2017-01-11T13:36:53Z</time>
      </trkpt>
      <trkpt lat="43.43182" lon="6.0582">
        <ele>267.20001220703</ele>
        <time>2017-01-11T13:36:55Z</time>
      </trkpt>
      <trkpt lat="43.43182" lon="6.05817">
        <ele>267</ele>
        <time>2017-01-11T13:36:56Z</time>
      </trkpt>
      <trkpt lat="43.43182" lon="6.05817">
        <ele>266.39999389648</ele>
        <time>2017-01-11T13:37:00Z</time>
      </trkpt>
      <trkpt lat="43.43182" lon="6.05817">
        <ele>266.39999389648</ele>
        <time>2017-01-11T13:37:07Z</time>
      </trkpt>
      <trkpt lat="43.43182" lon="6.05817">
        <ele>266.20001220703</ele>
        <time>2017-01-11T13:37:38Z</time>
      </trkpt>
      <trkpt lat="43.43182" lon="6.05817">
        <ele>266.39999389648</ele>
        <time>2017-01-11T13:38:03Z</time>
      </trkpt>
      <trkpt lat="43.43182" lon="6.05817">
        <ele>266.39999389648</ele>
        <time>2017-01-11T13:38:31Z</time>
      </trkpt>
      <trkpt lat="43.43182" lon="6.05817">
        <ele>266.39999389648</ele>
        <time>2017-01-11T13:38:46Z</time>
      </trkpt>
      <trkpt lat="43.43182" lon="6.05817">
        <ele>266.39999389648</ele>
        <time>2017-01-11T13:38:50Z</time>
      </trkpt>
      <trkpt lat="43.43182" lon="6.05817">
        <ele>266.39999389648</ele>
        <time>2017-01-11T13:39:17Z</time>
      </trkpt>
      <trkpt lat="43.43183" lon="6.05811">
        <ele>266.39999389648</ele>
        <time>2017-01-11T13:40:30Z</time>
      </trkpt>
      <trkpt lat="43.43202" lon="6.05771">
        <ele>265.20001220703</ele>
        <time>2017-01-11T13:40:45Z</time>
      </trkpt>
      <trkpt lat="43.43208" lon="6.05752">
        <ele>264.39999389648</ele>
        <time>2017-01-11T13:40:50Z</time>
      </trkpt>
      <trkpt lat="43.43213" lon="6.0574">
        <ele>264</ele>
        <time>2017-01-11T13:40:53Z</time>
      </trkpt>
      <trkpt lat="43.43216" lon="6.05709">
        <ele>264.20001220703</ele>
        <time>2017-01-11T13:41:00Z</time>
      </trkpt>
      <trkpt lat="43.43219" lon="6.05673">
        <ele>263.39999389648</ele>
        <time>2017-01-11T13:41:07Z</time>
      </trkpt>
      <trkpt lat="43.43226" lon="6.05596">
        <ele>263</ele>
        <time>2017-01-11T13:41:20Z</time>
      </trkpt>
      <trkpt lat="43.43228" lon="6.05577">
        <ele>262.60000610352</ele>
        <time>2017-01-11T13:41:23Z</time>
      </trkpt>
      <trkpt lat="43.43229" lon="6.05566">
        <ele>262.39999389648</ele>
        <time>2017-01-11T13:41:25Z</time>
      </trkpt>
      <trkpt lat="43.4325" lon="6.05493">
        <ele>261.39999389648</ele>
        <time>2017-01-11T13:41:37Z</time>
      </trkpt>
      <trkpt lat="43.43254" lon="6.05478">
        <ele>259.20001220703</ele>
        <time>2017-01-11T13:41:39Z</time>
      </trkpt>
      <trkpt lat="43.43261" lon="6.05461">
        <ele>258</ele>
        <time>2017-01-11T13:41:41Z</time>
      </trkpt>
      <trkpt lat="43.43277" lon="6.05417">
        <ele>256.79998779297</ele>
        <time>2017-01-11T13:41:46Z</time>
      </trkpt>
      <trkpt lat="43.43285" lon="6.05391">
        <ele>256.20001220703</ele>
        <time>2017-01-11T13:41:50Z</time>
      </trkpt>
      <trkpt lat="43.43294" lon="6.0537">
        <ele>256.60000610352</ele>
        <time>2017-01-11T13:41:54Z</time>
      </trkpt>
      <trkpt lat="43.43304" lon="6.05352">
        <ele>256.60000610352</ele>
        <time>2017-01-11T13:41:58Z</time>
      </trkpt>
      <trkpt lat="43.43333" lon="6.05289">
        <ele>256.60000610352</ele>
        <time>2017-01-11T13:42:11Z</time>
      </trkpt>
      <trkpt lat="43.43341" lon="6.05266">
        <ele>255.60000610352</ele>
        <time>2017-01-11T13:42:15Z</time>
      </trkpt>
      <trkpt lat="43.43343" lon="6.0526">
        <ele>255.60000610352</ele>
        <time>2017-01-11T13:42:16Z</time>
      </trkpt>
      <trkpt lat="43.43358" lon="6.05219">
        <ele>255.39999389648</ele>
        <time>2017-01-11T13:42:24Z</time>
      </trkpt>
      <trkpt lat="43.43369" lon="6.05189">
        <ele>255.60000610352</ele>
        <time>2017-01-11T13:42:30Z</time>
      </trkpt>
      <trkpt lat="43.43373" lon="6.05175">
        <ele>256.39999389648</ele>
        <time>2017-01-11T13:42:33Z</time>
      </trkpt>
      <trkpt lat="43.43376" lon="6.05167">
        <ele>256.79998779297</ele>
        <time>2017-01-11T13:42:35Z</time>
      </trkpt>
      <trkpt lat="43.43376" lon="6.05158">
        <ele>257.20001220703</ele>
        <time>2017-01-11T13:42:38Z</time>
      </trkpt>
      <trkpt lat="43.4337" lon="6.05147">
        <ele>257.39999389648</ele>
        <time>2017-01-11T13:42:43Z</time>
      </trkpt>
      <trkpt lat="43.43368" lon="6.05143">
        <ele>257.39999389648</ele>
        <time>2017-01-11T13:42:45Z</time>
      </trkpt>
      <trkpt lat="43.43361" lon="6.05139">
        <ele>257.79998779297</ele>
        <time>2017-01-11T13:42:51Z</time>
      </trkpt>
      <trkpt lat="43.43343" lon="6.05129">
        <ele>258.79998779297</ele>
        <time>2017-01-11T13:43:02Z</time>
      </trkpt>
      <trkpt lat="43.43337" lon="6.05124">
        <ele>259.20001220703</ele>
        <time>2017-01-11T13:43:05Z</time>
      </trkpt>
      <trkpt lat="43.4333" lon="6.05117">
        <ele>259.60000610352</ele>
        <time>2017-01-11T13:43:09Z</time>
      </trkpt>
      <trkpt lat="43.43327" lon="6.05113">
        <ele>260</ele>
        <time>2017-01-11T13:43:11Z</time>
      </trkpt>
      <trkpt lat="43.43319" lon="6.05106">
        <ele>260.60000610352</ele>
        <time>2017-01-11T13:43:15Z</time>
      </trkpt>
      <trkpt lat="43.43311" lon="6.05097">
        <ele>261</ele>
        <time>2017-01-11T13:43:20Z</time>
      </trkpt>
      <trkpt lat="43.43296" lon="6.05085">
        <ele>262.20001220703</ele>
        <time>2017-01-11T13:43:28Z</time>
      </trkpt>
      <trkpt lat="43.4329" lon="6.0508">
        <ele>263</ele>
        <time>2017-01-11T13:43:32Z</time>
      </trkpt>
      <trkpt lat="43.43289" lon="6.05079">
        <ele>263.20001220703</ele>
        <time>2017-01-11T13:43:33Z</time>
      </trkpt>
      <trkpt lat="43.4328" lon="6.05073">
        <ele>264.20001220703</ele>
        <time>2017-01-11T13:43:39Z</time>
      </trkpt>
      <trkpt lat="43.43248" lon="6.05073">
        <ele>265.20001220703</ele>
        <time>2017-01-11T13:43:56Z</time>
      </trkpt>
      <trkpt lat="43.43241" lon="6.05074">
        <ele>266.39999389648</ele>
        <time>2017-01-11T13:44:00Z</time>
      </trkpt>
      <trkpt lat="43.43225" lon="6.05076">
        <ele>267.39999389648</ele>
        <time>2017-01-11T13:44:09Z</time>
      </trkpt>
      <trkpt lat="43.43205" lon="6.05075">
        <ele>268.60000610352</ele>
        <time>2017-01-11T13:44:20Z</time>
      </trkpt>
      <trkpt lat="43.43193" lon="6.05072">
        <ele>269.60000610352</ele>
        <time>2017-01-11T13:44:28Z</time>
      </trkpt>
      <trkpt lat="43.43185" lon="6.0507">
        <ele>270.60000610352</ele>
        <time>2017-01-11T13:44:33Z</time>
      </trkpt>
      <trkpt lat="43.43176" lon="6.05066">
        <ele>271.39999389648</ele>
        <time>2017-01-11T13:44:39Z</time>
      </trkpt>
      <trkpt lat="43.43172" lon="6.05065">
        <ele>271.79998779297</ele>
        <time>2017-01-11T13:44:41Z</time>
      </trkpt>
      <trkpt lat="43.43162" lon="6.05058">
        <ele>272.79998779297</ele>
        <time>2017-01-11T13:44:48Z</time>
      </trkpt>
      <trkpt lat="43.43145" lon="6.05045">
        <ele>273.79998779297</ele>
        <time>2017-01-11T13:44:58Z</time>
      </trkpt>
      <trkpt lat="43.43139" lon="6.05037">
        <ele>275</ele>
        <time>2017-01-11T13:45:03Z</time>
      </trkpt>
      <trkpt lat="43.43127" lon="6.05022">
        <ele>276</ele>
        <time>2017-01-11T13:45:13Z</time>
      </trkpt>
      <trkpt lat="43.43118" lon="6.05009">
        <ele>277.20001220703</ele>
        <time>2017-01-11T13:45:21Z</time>
      </trkpt>
      <trkpt lat="43.43113" lon="6.05002">
        <ele>277.60000610352</ele>
        <time>2017-01-11T13:45:26Z</time>
      </trkpt>
      <trkpt lat="43.43108" lon="6.04994">
        <ele>278.20001220703</ele>
        <time>2017-01-11T13:45:31Z</time>
      </trkpt>
      <trkpt lat="43.43101" lon="6.04981">
        <ele>279.20001220703</ele>
        <time>2017-01-11T13:45:38Z</time>
      </trkpt>
      <trkpt lat="43.43091" lon="6.04968">
        <ele>280.39999389648</ele>
        <time>2017-01-11T13:45:46Z</time>
      </trkpt>
      <trkpt lat="43.43078" lon="6.04948">
        <ele>281.60000610352</ele>
        <time>2017-01-11T13:45:57Z</time>
      </trkpt>
      <trkpt lat="43.43063" lon="6.04921">
        <ele>283.60000610352</ele>
        <time>2017-01-11T13:46:12Z</time>
      </trkpt>
      <trkpt lat="43.43056" lon="6.04907">
        <ele>284.79998779297</ele>
        <time>2017-01-11T13:46:19Z</time>
      </trkpt>
      <trkpt lat="43.4305" lon="6.04896">
        <ele>285.79998779297</ele>
        <time>2017-01-11T13:46:25Z</time>
      </trkpt>
      <trkpt lat="43.43041" lon="6.04879">
        <ele>286.79998779297</ele>
        <time>2017-01-11T13:46:35Z</time>
      </trkpt>
      <trkpt lat="43.43033" lon="6.04864">
        <ele>288</ele>
        <time>2017-01-11T13:46:43Z</time>
      </trkpt>
      <trkpt lat="43.43025" lon="6.04844">
        <ele>289</ele>
        <time>2017-01-11T13:46:53Z</time>
      </trkpt>
      <trkpt lat="43.43024" lon="6.04822">
        <ele>290</ele>
        <time>2017-01-11T13:47:02Z</time>
      </trkpt>
      <trkpt lat="43.43027" lon="6.04798">
        <ele>291.20001220703</ele>
        <time>2017-01-11T13:47:12Z</time>
      </trkpt>
      <trkpt lat="43.43028" lon="6.04784">
        <ele>292.20001220703</ele>
        <time>2017-01-11T13:47:18Z</time>
      </trkpt>
      <trkpt lat="43.43031" lon="6.04772">
        <ele>293.20001220703</ele>
        <time>2017-01-11T13:47:23Z</time>
      </trkpt>
      <trkpt lat="43.43042" lon="6.04744">
        <ele>293.79998779297</ele>
        <time>2017-01-11T13:47:35Z</time>
      </trkpt>
      <trkpt lat="43.43045" lon="6.04738">
        <ele>294.39999389648</ele>
        <time>2017-01-11T13:47:38Z</time>
      </trkpt>
      <trkpt lat="43.43052" lon="6.04723">
        <ele>295.39999389648</ele>
        <time>2017-01-11T13:47:46Z</time>
      </trkpt>
      <trkpt lat="43.43061" lon="6.04706">
        <ele>296.39999389648</ele>
        <time>2017-01-11T13:47:54Z</time>
      </trkpt>
      <trkpt lat="43.43061" lon="6.04692">
        <ele>297.39999389648</ele>
        <time>2017-01-11T13:48:00Z</time>
      </trkpt>
      <trkpt lat="43.4306" lon="6.04689">
        <ele>297.39999389648</ele>
        <time>2017-01-11T13:48:01Z</time>
      </trkpt>
      <trkpt lat="43.43054" lon="6.04659">
        <ele>298.60000610352</ele>
        <time>2017-01-11T13:48:13Z</time>
      </trkpt>
      <trkpt lat="43.43052" lon="6.04638">
        <ele>299</ele>
        <time>2017-01-11T13:48:21Z</time>
      </trkpt>
      <trkpt lat="43.43047" lon="6.0461">
        <ele>299.20001220703</ele>
        <time>2017-01-11T13:48:31Z</time>
      </trkpt>
      <trkpt lat="43.43044" lon="6.04592">
        <ele>299.60000610352</ele>
        <time>2017-01-11T13:48:38Z</time>
      </trkpt>
      <trkpt lat="43.43052" lon="6.04551">
        <ele>300.79998779297</ele>
        <time>2017-01-11T13:48:53Z</time>
      </trkpt>
      <trkpt lat="43.43057" lon="6.0452">
        <ele>301.79998779297</ele>
        <time>2017-01-11T13:49:04Z</time>
      </trkpt>
      <trkpt lat="43.4306" lon="6.04497">
        <ele>302.79998779297</ele>
        <time>2017-01-11T13:49:12Z</time>
      </trkpt>
      <trkpt lat="43.43072" lon="6.04446">
        <ele>304</ele>
        <time>2017-01-11T13:49:29Z</time>
      </trkpt>
      <trkpt lat="43.43079" lon="6.04423">
        <ele>305</ele>
        <time>2017-01-11T13:49:38Z</time>
      </trkpt>
      <trkpt lat="43.43086" lon="6.04392">
        <ele>306</ele>
        <time>2017-01-11T13:49:50Z</time>
      </trkpt>
      <trkpt lat="43.43095" lon="6.04378">
        <ele>307.20001220703</ele>
        <time>2017-01-11T13:49:57Z</time>
      </trkpt>
      <trkpt lat="43.43102" lon="6.04364">
        <ele>308.20001220703</ele>
        <time>2017-01-11T13:50:03Z</time>
      </trkpt>
      <trkpt lat="43.43106" lon="6.04335">
        <ele>308.39999389648</ele>
        <time>2017-01-11T13:50:14Z</time>
      </trkpt>
      <trkpt lat="43.43106" lon="6.04322">
        <ele>309.20001220703</ele>
        <time>2017-01-11T13:50:19Z</time>
      </trkpt>
      <trkpt lat="43.43099" lon="6.04287">
        <ele>310.39999389648</ele>
        <time>2017-01-11T13:50:33Z</time>
      </trkpt>
      <trkpt lat="43.43094" lon="6.04256">
        <ele>311.39999389648</ele>
        <time>2017-01-11T13:50:44Z</time>
      </trkpt>
      <trkpt lat="43.43085" lon="6.04228">
        <ele>312.20001220703</ele>
        <time>2017-01-11T13:50:54Z</time>
      </trkpt>
      <trkpt lat="43.43083" lon="6.04224">
        <ele>312.39999389648</ele>
        <time>2017-01-11T13:50:56Z</time>
      </trkpt>
      <trkpt lat="43.43075" lon="6.04202">
        <ele>312.39999389648</ele>
        <time>2017-01-11T13:51:05Z</time>
      </trkpt>
      <trkpt lat="43.43079" lon="6.04168">
        <ele>313.39999389648</ele>
        <time>2017-01-11T13:51:17Z</time>
      </trkpt>
      <trkpt lat="43.43084" lon="6.04097">
        <ele>314.60000610352</ele>
        <time>2017-01-11T13:51:41Z</time>
      </trkpt>
      <trkpt lat="43.43082" lon="6.04072">
        <ele>315.60000610352</ele>
        <time>2017-01-11T13:51:49Z</time>
      </trkpt>
      <trkpt lat="43.43082" lon="6.04058">
        <ele>315.79998779297</ele>
        <time>2017-01-11T13:51:57Z</time>
      </trkpt>
      <trkpt lat="43.43083" lon="6.04055">
        <ele>316</ele>
        <time>2017-01-11T13:52:03Z</time>
      </trkpt>
      <trkpt lat="43.43083" lon="6.04056">
        <ele>316.20001220703</ele>
        <time>2017-01-11T13:52:13Z</time>
      </trkpt>
      <trkpt lat="43.43083" lon="6.04055">
        <ele>316</ele>
        <time>2017-01-11T13:52:18Z</time>
      </trkpt>
      <trkpt lat="43.43083" lon="6.04055">
        <ele>316</ele>
        <time>2017-01-11T13:52:37Z</time>
      </trkpt>
      <trkpt lat="43.43083" lon="6.04055">
        <ele>315.60000610352</ele>
        <time>2017-01-11T13:52:49Z</time>
      </trkpt>
      <trkpt lat="43.43085" lon="6.04055">
        <ele>315.39999389648</ele>
        <time>2017-01-11T13:52:57Z</time>
      </trkpt>
      <trkpt lat="43.43089" lon="6.04057">
        <ele>315.39999389648</ele>
        <time>2017-01-11T13:53:00Z</time>
      </trkpt>
      <trkpt lat="43.43099" lon="6.04061">
        <ele>315.79998779297</ele>
        <time>2017-01-11T13:53:06Z</time>
      </trkpt>
      <trkpt lat="43.43103" lon="6.04062">
        <ele>316</ele>
        <time>2017-01-11T13:53:08Z</time>
      </trkpt>
      <trkpt lat="43.43107" lon="6.04062">
        <ele>317</ele>
        <time>2017-01-11T13:53:11Z</time>
      </trkpt>
      <trkpt lat="43.4311" lon="6.04063">
        <ele>318</ele>
        <time>2017-01-11T13:53:13Z</time>
      </trkpt>
      <trkpt lat="43.43111" lon="6.04062">
        <ele>318.39999389648</ele>
        <time>2017-01-11T13:53:14Z</time>
      </trkpt>
      <trkpt lat="43.43114" lon="6.04062">
        <ele>319</ele>
        <time>2017-01-11T13:53:16Z</time>
      </trkpt>
      <trkpt lat="43.43116" lon="6.04062">
        <ele>319.60000610352</ele>
        <time>2017-01-11T13:53:18Z</time>
      </trkpt>
      <trkpt lat="43.43119" lon="6.04063">
        <ele>320.39999389648</ele>
        <time>2017-01-11T13:53:21Z</time>
      </trkpt>
      <trkpt lat="43.4312" lon="6.04063">
        <ele>320.79998779297</ele>
        <time>2017-01-11T13:53:22Z</time>
      </trkpt>
      <trkpt lat="43.43121" lon="6.04063">
        <ele>321.39999389648</ele>
        <time>2017-01-11T13:53:25Z</time>
      </trkpt>
      <trkpt lat="43.43122" lon="6.04063">
        <ele>321.39999389648</ele>
        <time>2017-01-11T13:53:32Z</time>
      </trkpt>
      <trkpt lat="43.43121" lon="6.04063">
        <ele>321.20001220703</ele>
        <time>2017-01-11T13:53:34Z</time>
      </trkpt>
      <trkpt lat="43.43121" lon="6.04063">
        <ele>321.20001220703</ele>
        <time>2017-01-11T13:53:36Z</time>
      </trkpt>
      <trkpt lat="43.43121" lon="6.04063">
        <ele>321.20001220703</ele>
        <time>2017-01-11T13:53:39Z</time>
      </trkpt>
      <trkpt lat="43.43121" lon="6.04063">
        <ele>320.79998779297</ele>
        <time>2017-01-11T13:54:03Z</time>
      </trkpt>
      <trkpt lat="43.43121" lon="6.04063">
        <ele>321</ele>
        <time>2017-01-11T13:54:12Z</time>
      </trkpt>
      <trkpt lat="43.43121" lon="6.04064">
        <ele>321</ele>
        <time>2017-01-11T13:54:22Z</time>
      </trkpt>
      <trkpt lat="43.4312" lon="6.04063">
        <ele>320.79998779297</ele>
        <time>2017-01-11T13:54:37Z</time>
      </trkpt>
      <trkpt lat="43.43119" lon="6.04064">
        <ele>320.60000610352</ele>
        <time>2017-01-11T13:54:40Z</time>
      </trkpt>
      <trkpt lat="43.43112" lon="6.04062">
        <ele>319.60000610352</ele>
        <time>2017-01-11T13:54:44Z</time>
      </trkpt>
      <trkpt lat="43.43108" lon="6.04061">
        <ele>318</ele>
        <time>2017-01-11T13:54:46Z</time>
      </trkpt>
      <trkpt lat="43.431" lon="6.04059">
        <ele>316.60000610352</ele>
        <time>2017-01-11T13:54:49Z</time>
      </trkpt>
      <trkpt lat="43.43093" lon="6.04057">
        <ele>315.20001220703</ele>
        <time>2017-01-11T13:54:51Z</time>
      </trkpt>
      <trkpt lat="43.43081" lon="6.0405">
        <ele>315.39999389648</ele>
        <time>2017-01-11T13:55:20Z</time>
      </trkpt>
      <trkpt lat="43.43081" lon="6.0405">
        <ele>315.39999389648</ele>
        <time>2017-01-11T13:55:34Z</time>
      </trkpt>
      <trkpt lat="43.43081" lon="6.0405">
        <ele>315.20001220703</ele>
        <time>2017-01-11T13:55:41Z</time>
      </trkpt>
      <trkpt lat="43.43081" lon="6.04049">
        <ele>315.20001220703</ele>
        <time>2017-01-11T13:56:05Z</time>
      </trkpt>
      <trkpt lat="43.43081" lon="6.04047">
        <ele>315.20001220703</ele>
        <time>2017-01-11T13:57:08Z</time>
      </trkpt>
      <trkpt lat="43.43081" lon="6.04047">
        <ele>315.20001220703</ele>
        <time>2017-01-11T13:57:36Z</time>
      </trkpt>
      <trkpt lat="43.43081" lon="6.04047">
        <ele>315.20001220703</ele>
        <time>2017-01-11T13:58:07Z</time>
      </trkpt>
      <trkpt lat="43.43081" lon="6.04047">
        <ele>315.20001220703</ele>
        <time>2017-01-11T13:58:37Z</time>
      </trkpt>
      <trkpt lat="43.43081" lon="6.04047">
        <ele>315.20001220703</ele>
        <time>2017-01-11T13:58:47Z</time>
      </trkpt>
      <trkpt lat="43.43081" lon="6.04046">
        <ele>315.20001220703</ele>
        <time>2017-01-11T13:58:56Z</time>
      </trkpt>
      <trkpt lat="43.4308" lon="6.04042">
        <ele>315.39999389648</ele>
        <time>2017-01-11T13:59:00Z</time>
      </trkpt>
      <trkpt lat="43.43074" lon="6.04012">
        <ele>316</ele>
        <time>2017-01-11T13:59:17Z</time>
      </trkpt>
      <trkpt lat="43.43072" lon="6.04008">
        <ele>316.39999389648</ele>
        <time>2017-01-11T13:59:19Z</time>
      </trkpt>
      <trkpt lat="43.43069" lon="6.03999">
        <ele>317</ele>
        <time>2017-01-11T13:59:23Z</time>
      </trkpt>
      <trkpt lat="43.43069" lon="6.03988">
        <ele>317.39999389648</ele>
        <time>2017-01-11T13:59:28Z</time>
      </trkpt>
      <trkpt lat="43.43071" lon="6.03983">
        <ele>317.60000610352</ele>
        <time>2017-01-11T13:59:30Z</time>
      </trkpt>
      <trkpt lat="43.43077" lon="6.03961">
        <ele>318</ele>
        <time>2017-01-11T13:59:40Z</time>
      </trkpt>
      <trkpt lat="43.4308" lon="6.03936">
        <ele>318.79998779297</ele>
        <time>2017-01-11T13:59:51Z</time>
      </trkpt>
      <trkpt lat="43.43084" lon="6.0392">
        <ele>319.79998779297</ele>
        <time>2017-01-11T13:59:58Z</time>
      </trkpt>
      <trkpt lat="43.43085" lon="6.03911">
        <ele>320.60000610352</ele>
        <time>2017-01-11T14:00:02Z</time>
      </trkpt>
      <trkpt lat="43.43085" lon="6.03907">
        <ele>321</ele>
        <time>2017-01-11T14:00:04Z</time>
      </trkpt>
      <trkpt lat="43.43086" lon="6.03888">
        <ele>322</ele>
        <time>2017-01-11T14:00:13Z</time>
      </trkpt>
      <trkpt lat="43.43087" lon="6.03865">
        <ele>323.20001220703</ele>
        <time>2017-01-11T14:00:25Z</time>
      </trkpt>
      <trkpt lat="43.43087" lon="6.03865">
        <ele>323.20001220703</ele>
        <time>2017-01-11T14:00:30Z</time>
      </trkpt>
      <trkpt lat="43.43087" lon="6.03864">
        <ele>323</ele>
        <time>2017-01-11T14:00:33Z</time>
      </trkpt>
      <trkpt lat="43.43087" lon="6.03864">
        <ele>323</ele>
        <time>2017-01-11T14:00:37Z</time>
      </trkpt>
      <trkpt lat="43.43087" lon="6.03865">
        <ele>323</ele>
        <time>2017-01-11T14:00:41Z</time>
      </trkpt>
      <trkpt lat="43.43087" lon="6.03865">
        <ele>323</ele>
        <time>2017-01-11T14:00:52Z</time>
      </trkpt>
      <trkpt lat="43.43087" lon="6.03866">
        <ele>323</ele>
        <time>2017-01-11T14:00:59Z</time>
      </trkpt>
      <trkpt lat="43.43087" lon="6.03867">
        <ele>322.60000610352</ele>
        <time>2017-01-11T14:01:33Z</time>
      </trkpt>
      <trkpt lat="43.43087" lon="6.03867">
        <ele>322.60000610352</ele>
        <time>2017-01-11T14:01:58Z</time>
      </trkpt>
      <trkpt lat="43.43087" lon="6.03867">
        <ele>322.60000610352</ele>
        <time>2017-01-11T14:02:11Z</time>
      </trkpt>
      <trkpt lat="43.43087" lon="6.03869">
        <ele>322.60000610352</ele>
        <time>2017-01-11T14:02:22Z</time>
      </trkpt>
      <trkpt lat="43.43086" lon="6.03873">
        <ele>322.79998779297</ele>
        <time>2017-01-11T14:02:26Z</time>
      </trkpt>
      <trkpt lat="43.43087" lon="6.03879">
        <ele>323.20001220703</ele>
        <time>2017-01-11T14:02:36Z</time>
      </trkpt>
      <trkpt lat="43.43087" lon="6.03881">
        <ele>323.20001220703</ele>
        <time>2017-01-11T14:02:48Z</time>
      </trkpt>
      <trkpt lat="43.43087" lon="6.03881">
        <ele>323</ele>
        <time>2017-01-11T14:02:54Z</time>
      </trkpt>
      <trkpt lat="43.43087" lon="6.03881">
        <ele>322.79998779297</ele>
        <time>2017-01-11T14:03:16Z</time>
      </trkpt>
      <trkpt lat="43.43088" lon="6.03882">
        <ele>322.39999389648</ele>
        <time>2017-01-11T14:03:28Z</time>
      </trkpt>
      <trkpt lat="43.43088" lon="6.03882">
        <ele>322.39999389648</ele>
        <time>2017-01-11T14:03:31Z</time>
      </trkpt>
      <trkpt lat="43.4309" lon="6.03882">
        <ele>322.20001220703</ele>
        <time>2017-01-11T14:03:48Z</time>
      </trkpt>
      <trkpt lat="43.43089" lon="6.03882">
        <ele>322.20001220703</ele>
        <time>2017-01-11T14:04:00Z</time>
      </trkpt>
      <trkpt lat="43.43089" lon="6.03882">
        <ele>322.20001220703</ele>
        <time>2017-01-11T14:04:15Z</time>
      </trkpt>
      <trkpt lat="43.43089" lon="6.03882">
        <ele>322</ele>
        <time>2017-01-11T14:04:23Z</time>
      </trkpt>
      <trkpt lat="43.43089" lon="6.03882">
        <ele>322</ele>
        <time>2017-01-11T14:04:34Z</time>
      </trkpt>
      <trkpt lat="43.43087" lon="6.0388">
        <ele>322.39999389648</ele>
        <time>2017-01-11T14:05:01Z</time>
      </trkpt>
      <trkpt lat="43.43088" lon="6.03877">
        <ele>322.39999389648</ele>
        <time>2017-01-11T14:05:12Z</time>
      </trkpt>
      <trkpt lat="43.43089" lon="6.03873">
        <ele>322.39999389648</ele>
        <time>2017-01-11T14:05:14Z</time>
      </trkpt>
      <trkpt lat="43.43092" lon="6.03853">
        <ele>322.39999389648</ele>
        <time>2017-01-11T14:05:22Z</time>
      </trkpt>
      <trkpt lat="43.43091" lon="6.03823">
        <ele>322.39999389648</ele>
        <time>2017-01-11T14:05:33Z</time>
      </trkpt>
      <trkpt lat="43.43092" lon="6.03803">
        <ele>322.20001220703</ele>
        <time>2017-01-11T14:05:39Z</time>
      </trkpt>
      <trkpt lat="43.43094" lon="6.03775">
        <ele>323.20001220703</ele>
        <time>2017-01-11T14:05:46Z</time>
      </trkpt>
      <trkpt lat="43.43094" lon="6.03749">
        <ele>323.20001220703</ele>
        <time>2017-01-11T14:05:52Z</time>
      </trkpt>
      <trkpt lat="43.43095" lon="6.0371">
        <ele>323.79998779297</ele>
        <time>2017-01-11T14:06:02Z</time>
      </trkpt>
      <trkpt lat="43.43103" lon="6.0366">
        <ele>324.20001220703</ele>
        <time>2017-01-11T14:06:16Z</time>
      </trkpt>
      <trkpt lat="43.43102" lon="6.03633">
        <ele>324.79998779297</ele>
        <time>2017-01-11T14:06:23Z</time>
      </trkpt>
      <trkpt lat="43.43102" lon="6.036">
        <ele>325</ele>
        <time>2017-01-11T14:06:32Z</time>
      </trkpt>
      <trkpt lat="43.43105" lon="6.03582">
        <ele>325.79998779297</ele>
        <time>2017-01-11T14:06:38Z</time>
      </trkpt>
      <trkpt lat="43.43104" lon="6.03563">
        <ele>326.39999389648</ele>
        <time>2017-01-11T14:06:45Z</time>
      </trkpt>
      <trkpt lat="43.43106" lon="6.03529">
        <ele>327.39999389648</ele>
        <time>2017-01-11T14:06:57Z</time>
      </trkpt>
      <trkpt lat="43.43107" lon="6.03501">
        <ele>328.60000610352</ele>
        <time>2017-01-11T14:07:07Z</time>
      </trkpt>
      <trkpt lat="43.4311" lon="6.03468">
        <ele>329.60000610352</ele>
        <time>2017-01-11T14:07:21Z</time>
      </trkpt>
      <trkpt lat="43.43112" lon="6.03434">
        <ele>330.39999389648</ele>
        <time>2017-01-11T14:07:34Z</time>
      </trkpt>
      <trkpt lat="43.43114" lon="6.03415">
        <ele>330.60000610352</ele>
        <time>2017-01-11T14:07:41Z</time>
      </trkpt>
      <trkpt lat="43.43117" lon="6.03397">
        <ele>330.39999389648</ele>
        <time>2017-01-11T14:07:47Z</time>
      </trkpt>
      <trkpt lat="43.43118" lon="6.0338">
        <ele>330.60000610352</ele>
        <time>2017-01-11T14:07:53Z</time>
      </trkpt>
      <trkpt lat="43.43121" lon="6.03335">
        <ele>331.79998779297</ele>
        <time>2017-01-11T14:08:08Z</time>
      </trkpt>
      <trkpt lat="43.43123" lon="6.03309">
        <ele>332.79998779297</ele>
        <time>2017-01-11T14:08:17Z</time>
      </trkpt>
      <trkpt lat="43.43125" lon="6.03285">
        <ele>334</ele>
        <time>2017-01-11T14:08:26Z</time>
      </trkpt>
      <trkpt lat="43.43129" lon="6.03239">
        <ele>335</ele>
        <time>2017-01-11T14:08:42Z</time>
      </trkpt>
      <trkpt lat="43.4313" lon="6.03216">
        <ele>335.20001220703</ele>
        <time>2017-01-11T14:08:49Z</time>
      </trkpt>
      <trkpt lat="43.43132" lon="6.03201">
        <ele>334.60000610352</ele>
        <time>2017-01-11T14:08:53Z</time>
      </trkpt>
      <trkpt lat="43.43132" lon="6.03191">
        <ele>333.79998779297</ele>
        <time>2017-01-11T14:08:55Z</time>
      </trkpt>
      <trkpt lat="43.43132" lon="6.03176">
        <ele>332</ele>
        <time>2017-01-11T14:08:58Z</time>
      </trkpt>
      <trkpt lat="43.43132" lon="6.03171">
        <ele>331</ele>
        <time>2017-01-11T14:08:59Z</time>
      </trkpt>
      <trkpt lat="43.4313" lon="6.03162">
        <ele>329</ele>
        <time>2017-01-11T14:09:01Z</time>
      </trkpt>
      <trkpt lat="43.43128" lon="6.03157">
        <ele>327.60000610352</ele>
        <time>2017-01-11T14:09:03Z</time>
      </trkpt>
      <trkpt lat="43.43117" lon="6.03157">
        <ele>327.39999389648</ele>
        <time>2017-01-11T14:09:18Z</time>
      </trkpt>
      <trkpt lat="43.43117" lon="6.03157">
        <ele>327.39999389648</ele>
        <time>2017-01-11T14:09:21Z</time>
      </trkpt>
      <trkpt lat="43.43117" lon="6.03157">
        <ele>327.79998779297</ele>
        <time>2017-01-11T14:09:33Z</time>
      </trkpt>
      <trkpt lat="43.43117" lon="6.03157">
        <ele>327.60000610352</ele>
        <time>2017-01-11T14:09:42Z</time>
      </trkpt>
      <trkpt lat="43.43117" lon="6.03158">
        <ele>327.39999389648</ele>
        <time>2017-01-11T14:09:53Z</time>
      </trkpt>
      <trkpt lat="43.43115" lon="6.03158">
        <ele>327.60000610352</ele>
        <time>2017-01-11T14:09:55Z</time>
      </trkpt>
      <trkpt lat="43.43113" lon="6.03158">
        <ele>327.60000610352</ele>
        <time>2017-01-11T14:09:56Z</time>
      </trkpt>
      <trkpt lat="43.43111" lon="6.03159">
        <ele>327.79998779297</ele>
        <time>2017-01-11T14:09:58Z</time>
      </trkpt>
      <trkpt lat="43.43103" lon="6.0316">
        <ele>327.60000610352</ele>
        <time>2017-01-11T14:10:02Z</time>
      </trkpt>
      <trkpt lat="43.43097" lon="6.03164">
        <ele>328.20001220703</ele>
        <time>2017-01-11T14:10:07Z</time>
      </trkpt>
      <trkpt lat="43.43093" lon="6.03165">
        <ele>328.60000610352</ele>
        <time>2017-01-11T14:10:09Z</time>
      </trkpt>
      <trkpt lat="43.43081" lon="6.03169">
        <ele>329.39999389648</ele>
        <time>2017-01-11T14:10:15Z</time>
      </trkpt>
      <trkpt lat="43.43077" lon="6.03172">
        <ele>329.79998779297</ele>
        <time>2017-01-11T14:10:17Z</time>
      </trkpt>
      <trkpt lat="43.43072" lon="6.03176">
        <ele>330.79998779297</ele>
        <time>2017-01-11T14:10:20Z</time>
      </trkpt>
      <trkpt lat="43.43067" lon="6.03177">
        <ele>331.39999389648</ele>
        <time>2017-01-11T14:10:23Z</time>
      </trkpt>
      <trkpt lat="43.43064" lon="6.03176">
        <ele>331.79998779297</ele>
        <time>2017-01-11T14:10:25Z</time>
      </trkpt>
      <trkpt lat="43.43059" lon="6.03176">
        <ele>332.39999389648</ele>
        <time>2017-01-11T14:10:28Z</time>
      </trkpt>
      <trkpt lat="43.43055" lon="6.03174">
        <ele>332.79998779297</ele>
        <time>2017-01-11T14:10:30Z</time>
      </trkpt>
      <trkpt lat="43.43054" lon="6.03173">
        <ele>333.20001220703</ele>
        <time>2017-01-11T14:10:31Z</time>
      </trkpt>
      <trkpt lat="43.4304" lon="6.03173">
        <ele>333.79998779297</ele>
        <time>2017-01-11T14:10:39Z</time>
      </trkpt>
      <trkpt lat="43.43028" lon="6.03173">
        <ele>335</ele>
        <time>2017-01-11T14:10:48Z</time>
      </trkpt>
      <trkpt lat="43.43026" lon="6.03173">
        <ele>335.20001220703</ele>
        <time>2017-01-11T14:10:50Z</time>
      </trkpt>
      <trkpt lat="43.43014" lon="6.03169">
        <ele>336.39999389648</ele>
        <time>2017-01-11T14:10:57Z</time>
      </trkpt>
      <trkpt lat="43.4301" lon="6.03166">
        <ele>337</ele>
        <time>2017-01-11T14:11:00Z</time>
      </trkpt>
      <trkpt lat="43.43007" lon="6.03163">
        <ele>337.39999389648</ele>
        <time>2017-01-11T14:11:02Z</time>
      </trkpt>
      <trkpt lat="43.42996" lon="6.03158">
        <ele>338.39999389648</ele>
        <time>2017-01-11T14:11:10Z</time>
      </trkpt>
      <trkpt lat="43.42995" lon="6.03158">
        <ele>338.39999389648</ele>
        <time>2017-01-11T14:11:11Z</time>
      </trkpt>
      <trkpt lat="43.42979" lon="6.03152">
        <ele>339.60000610352</ele>
        <time>2017-01-11T14:11:25Z</time>
      </trkpt>
      <trkpt lat="43.42977" lon="6.03152">
        <ele>339.79998779297</ele>
        <time>2017-01-11T14:11:26Z</time>
      </trkpt>
      <trkpt lat="43.42961" lon="6.03146">
        <ele>340.79998779297</ele>
        <time>2017-01-11T14:11:36Z</time>
      </trkpt>
      <trkpt lat="43.4295" lon="6.03139">
        <ele>341.79998779297</ele>
        <time>2017-01-11T14:11:43Z</time>
      </trkpt>
      <trkpt lat="43.42934" lon="6.03132">
        <ele>343</ele>
        <time>2017-01-11T14:11:52Z</time>
      </trkpt>
      <trkpt lat="43.42929" lon="6.0313">
        <ele>343.60000610352</ele>
        <time>2017-01-11T14:11:56Z</time>
      </trkpt>
      <trkpt lat="43.42927" lon="6.03129">
        <ele>343.79998779297</ele>
        <time>2017-01-11T14:11:58Z</time>
      </trkpt>
      <trkpt lat="43.42926" lon="6.03129">
        <ele>344</ele>
        <time>2017-01-11T14:11:59Z</time>
      </trkpt>
      <trkpt lat="43.42918" lon="6.03126">
        <ele>345</ele>
        <time>2017-01-11T14:12:06Z</time>
      </trkpt>
      <trkpt lat="43.4291" lon="6.03122">
        <ele>346.20001220703</ele>
        <time>2017-01-11T14:12:13Z</time>
      </trkpt>
      <trkpt lat="43.42904" lon="6.03117">
        <ele>347</ele>
        <time>2017-01-11T14:12:18Z</time>
      </trkpt>
      <trkpt lat="43.42901" lon="6.03117">
        <ele>347.20001220703</ele>
        <time>2017-01-11T14:12:20Z</time>
      </trkpt>
      <trkpt lat="43.42892" lon="6.03115">
        <ele>347.39999389648</ele>
        <time>2017-01-11T14:12:27Z</time>
      </trkpt>
      <trkpt lat="43.42883" lon="6.03117">
        <ele>348.20001220703</ele>
        <time>2017-01-11T14:12:32Z</time>
      </trkpt>
      <trkpt lat="43.42876" lon="6.0312">
        <ele>348.20001220703</ele>
        <time>2017-01-11T14:12:37Z</time>
      </trkpt>
      <trkpt lat="43.42857" lon="6.03117">
        <ele>349.20001220703</ele>
        <time>2017-01-11T14:12:48Z</time>
      </trkpt>
      <trkpt lat="43.42855" lon="6.03117">
        <ele>349.20001220703</ele>
        <time>2017-01-11T14:12:49Z</time>
      </trkpt>
      <trkpt lat="43.42842" lon="6.03119">
        <ele>350</ele>
        <time>2017-01-11T14:12:57Z</time>
      </trkpt>
      <trkpt lat="43.4282" lon="6.03141">
        <ele>351.39999389648</ele>
        <time>2017-01-11T14:13:13Z</time>
      </trkpt>
      <trkpt lat="43.42806" lon="6.0315">
        <ele>352.39999389648</ele>
        <time>2017-01-11T14:13:21Z</time>
      </trkpt>
      <trkpt lat="43.42797" lon="6.03154">
        <ele>353.20001220703</ele>
        <time>2017-01-11T14:13:26Z</time>
      </trkpt>
      <trkpt lat="43.42792" lon="6.03157">
        <ele>353.60000610352</ele>
        <time>2017-01-11T14:13:29Z</time>
      </trkpt>
      <trkpt lat="43.42778" lon="6.03165">
        <ele>355</ele>
        <time>2017-01-11T14:13:38Z</time>
      </trkpt>
      <trkpt lat="43.42767" lon="6.03169">
        <ele>356</ele>
        <time>2017-01-11T14:13:45Z</time>
      </trkpt>
      <trkpt lat="43.42757" lon="6.03173">
        <ele>356.39999389648</ele>
        <time>2017-01-11T14:13:51Z</time>
      </trkpt>
      <trkpt lat="43.42744" lon="6.03172">
        <ele>356.60000610352</ele>
        <time>2017-01-11T14:13:59Z</time>
      </trkpt>
      <trkpt lat="43.42737" lon="6.0317">
        <ele>357</ele>
        <time>2017-01-11T14:14:03Z</time>
      </trkpt>
      <trkpt lat="43.42725" lon="6.03173">
        <ele>358</ele>
        <time>2017-01-11T14:14:11Z</time>
      </trkpt>
      <trkpt lat="43.42707" lon="6.03168">
        <ele>358.60000610352</ele>
        <time>2017-01-11T14:14:22Z</time>
      </trkpt>
      <trkpt lat="43.42698" lon="6.03155">
        <ele>359.20001220703</ele>
        <time>2017-01-11T14:14:28Z</time>
      </trkpt>
      <trkpt lat="43.42681" lon="6.03141">
        <ele>360.20001220703</ele>
        <time>2017-01-11T14:14:39Z</time>
      </trkpt>
      <trkpt lat="43.42663" lon="6.03151">
        <ele>361.20001220703</ele>
        <time>2017-01-11T14:14:49Z</time>
      </trkpt>
      <trkpt lat="43.4266" lon="6.03155">
        <ele>361.60000610352</ele>
        <time>2017-01-11T14:14:51Z</time>
      </trkpt>
      <trkpt lat="43.4264" lon="6.03177">
        <ele>362.60000610352</ele>
        <time>2017-01-11T14:15:07Z</time>
      </trkpt>
      <trkpt lat="43.4263" lon="6.03179">
        <ele>363.60000610352</ele>
        <time>2017-01-11T14:15:13Z</time>
      </trkpt>
      <trkpt lat="43.42617" lon="6.03181">
        <ele>364.60000610352</ele>
        <time>2017-01-11T14:15:21Z</time>
      </trkpt>
      <trkpt lat="43.42614" lon="6.03182">
        <ele>365.20001220703</ele>
        <time>2017-01-11T14:15:23Z</time>
      </trkpt>
      <trkpt lat="43.42609" lon="6.03183">
        <ele>365.79998779297</ele>
        <time>2017-01-11T14:15:26Z</time>
      </trkpt>
      <trkpt lat="43.42591" lon="6.03182">
        <ele>366.79998779297</ele>
        <time>2017-01-11T14:15:37Z</time>
      </trkpt>
      <trkpt lat="43.42579" lon="6.03184">
        <ele>367.79998779297</ele>
        <time>2017-01-11T14:15:46Z</time>
      </trkpt>
      <trkpt lat="43.42563" lon="6.03199">
        <ele>368.79998779297</ele>
        <time>2017-01-11T14:15:58Z</time>
      </trkpt>
      <trkpt lat="43.42549" lon="6.03207">
        <ele>369.60000610352</ele>
        <time>2017-01-11T14:16:08Z</time>
      </trkpt>
      <trkpt lat="43.42544" lon="6.03211">
        <ele>370</ele>
        <time>2017-01-11T14:16:12Z</time>
      </trkpt>
      <trkpt lat="43.42542" lon="6.03216">
        <ele>370.39999389648</ele>
        <time>2017-01-11T14:16:15Z</time>
      </trkpt>
      <trkpt lat="43.42532" lon="6.03223">
        <ele>371.20001220703</ele>
        <time>2017-01-11T14:16:22Z</time>
      </trkpt>
      <trkpt lat="43.42527" lon="6.03227">
        <ele>372.20001220703</ele>
        <time>2017-01-11T14:16:26Z</time>
      </trkpt>
      <trkpt lat="43.42516" lon="6.03241">
        <ele>373.20001220703</ele>
        <time>2017-01-11T14:16:36Z</time>
      </trkpt>
      <trkpt lat="43.42511" lon="6.03249">
        <ele>374.20001220703</ele>
        <time>2017-01-11T14:16:42Z</time>
      </trkpt>
      <trkpt lat="43.42511" lon="6.0325">
        <ele>374.39999389648</ele>
        <time>2017-01-11T14:16:43Z</time>
      </trkpt>
      <trkpt lat="43.42511" lon="6.0325">
        <ele>374.39999389648</ele>
        <time>2017-01-11T14:16:48Z</time>
      </trkpt>
      <trkpt lat="43.42511" lon="6.0325">
        <ele>374.39999389648</ele>
        <time>2017-01-11T14:16:54Z</time>
      </trkpt>
      <trkpt lat="43.42511" lon="6.0325">
        <ele>374.60000610352</ele>
        <time>2017-01-11T14:17:01Z</time>
      </trkpt>
      <trkpt lat="43.42511" lon="6.0325">
        <ele>374.60000610352</ele>
        <time>2017-01-11T14:17:04Z</time>
      </trkpt>
      <trkpt lat="43.42511" lon="6.0325">
        <ele>374.60000610352</ele>
        <time>2017-01-11T14:17:12Z</time>
      </trkpt>
      <trkpt lat="43.42511" lon="6.03254">
        <ele>375</ele>
        <time>2017-01-11T14:17:50Z</time>
      </trkpt>
      <trkpt lat="43.42511" lon="6.03254">
        <ele>374.79998779297</ele>
        <time>2017-01-11T14:18:08Z</time>
      </trkpt>
      <trkpt lat="43.42511" lon="6.03253">
        <ele>374.79998779297</ele>
        <time>2017-01-11T14:19:03Z</time>
      </trkpt>
      <trkpt lat="43.42511" lon="6.03253">
        <ele>374.79998779297</ele>
        <time>2017-01-11T14:19:09Z</time>
      </trkpt>
      <trkpt lat="43.4251" lon="6.03253">
        <ele>374.79998779297</ele>
        <time>2017-01-11T14:19:41Z</time>
      </trkpt>
      <trkpt lat="43.4251" lon="6.03253">
        <ele>374.79998779297</ele>
        <time>2017-01-11T14:19:53Z</time>
      </trkpt>
      <trkpt lat="43.4251" lon="6.03253">
        <ele>374.79998779297</ele>
        <time>2017-01-11T14:19:55Z</time>
      </trkpt>
      <trkpt lat="43.4251" lon="6.03254">
        <ele>374.79998779297</ele>
        <time>2017-01-11T14:20:17Z</time>
      </trkpt>
      <trkpt lat="43.42511" lon="6.03254">
        <ele>374.79998779297</ele>
        <time>2017-01-11T14:21:01Z</time>
      </trkpt>
      <trkpt lat="43.42511" lon="6.03253">
        <ele>374.79998779297</ele>
        <time>2017-01-11T14:21:31Z</time>
      </trkpt>
      <trkpt lat="43.4251" lon="6.03254">
        <ele>374.79998779297</ele>
        <time>2017-01-11T14:22:20Z</time>
      </trkpt>
      <trkpt lat="43.42511" lon="6.03254">
        <ele>374.79998779297</ele>
        <time>2017-01-11T14:22:58Z</time>
      </trkpt>
      <trkpt lat="43.42511" lon="6.03255">
        <ele>374.79998779297</ele>
        <time>2017-01-11T14:23:23Z</time>
      </trkpt>
      <trkpt lat="43.42515" lon="6.03253">
        <ele>375</ele>
        <time>2017-01-11T14:23:26Z</time>
      </trkpt>
      <trkpt lat="43.42534" lon="6.03267">
        <ele>374.39999389648</ele>
        <time>2017-01-11T14:23:39Z</time>
      </trkpt>
      <trkpt lat="43.42537" lon="6.0328">
        <ele>374.79998779297</ele>
        <time>2017-01-11T14:23:44Z</time>
      </trkpt>
      <trkpt lat="43.42537" lon="6.03286">
        <ele>375.39999389648</ele>
        <time>2017-01-11T14:23:46Z</time>
      </trkpt>
      <trkpt lat="43.42538" lon="6.03292">
        <ele>375.79998779297</ele>
        <time>2017-01-11T14:23:48Z</time>
      </trkpt>
      <trkpt lat="43.42539" lon="6.03308">
        <ele>376</ele>
        <time>2017-01-11T14:23:54Z</time>
      </trkpt>
      <trkpt lat="43.42539" lon="6.03317">
        <ele>376.60000610352</ele>
        <time>2017-01-11T14:23:57Z</time>
      </trkpt>
      <trkpt lat="43.4254" lon="6.03326">
        <ele>377.60000610352</ele>
        <time>2017-01-11T14:24:00Z</time>
      </trkpt>
      <trkpt lat="43.4254" lon="6.03337">
        <ele>378.60000610352</ele>
        <time>2017-01-11T14:24:04Z</time>
      </trkpt>
      <trkpt lat="43.42541" lon="6.03339">
        <ele>378.79998779297</ele>
        <time>2017-01-11T14:24:05Z</time>
      </trkpt>
      <trkpt lat="43.42547" lon="6.03362">
        <ele>379.79998779297</ele>
        <time>2017-01-11T14:24:15Z</time>
      </trkpt>
      <trkpt lat="43.42545" lon="6.0338">
        <ele>380.79998779297</ele>
        <time>2017-01-11T14:24:23Z</time>
      </trkpt>
      <trkpt lat="43.4255" lon="6.03392">
        <ele>381.79998779297</ele>
        <time>2017-01-11T14:24:29Z</time>
      </trkpt>
      <trkpt lat="43.42566" lon="6.034">
        <ele>382.20001220703</ele>
        <time>2017-01-11T14:24:41Z</time>
      </trkpt>
      <trkpt lat="43.42574" lon="6.03412">
        <ele>381.79998779297</ele>
        <time>2017-01-11T14:24:47Z</time>
      </trkpt>
      <trkpt lat="43.42579" lon="6.03421">
        <ele>382</ele>
        <time>2017-01-11T14:24:52Z</time>
      </trkpt>
      <trkpt lat="43.42602" lon="6.03448">
        <ele>382.79998779297</ele>
        <time>2017-01-11T14:25:10Z</time>
      </trkpt>
      <trkpt lat="43.42606" lon="6.03452">
        <ele>383.20001220703</ele>
        <time>2017-01-11T14:25:13Z</time>
      </trkpt>
      <trkpt lat="43.42615" lon="6.03459">
        <ele>385.39999389648</ele>
        <time>2017-01-11T14:25:20Z</time>
      </trkpt>
      <trkpt lat="43.42617" lon="6.0346">
        <ele>386.39999389648</ele>
        <time>2017-01-11T14:25:23Z</time>
      </trkpt>
      <trkpt lat="43.42622" lon="6.03465">
        <ele>387</ele>
        <time>2017-01-11T14:25:28Z</time>
      </trkpt>
      <trkpt lat="43.42624" lon="6.03465">
        <ele>387.20001220703</ele>
        <time>2017-01-11T14:25:29Z</time>
      </trkpt>
      <trkpt lat="43.42625" lon="6.03466">
        <ele>387.39999389648</ele>
        <time>2017-01-11T14:25:31Z</time>
      </trkpt>
      <trkpt lat="43.42627" lon="6.03467">
        <ele>387.60000610352</ele>
        <time>2017-01-11T14:25:32Z</time>
      </trkpt>
      <trkpt lat="43.4263" lon="6.03469">
        <ele>388.20001220703</ele>
        <time>2017-01-11T14:25:35Z</time>
      </trkpt>
      <trkpt lat="43.42634" lon="6.03472">
        <ele>388.79998779297</ele>
        <time>2017-01-11T14:25:39Z</time>
      </trkpt>
      <trkpt lat="43.42635" lon="6.03473">
        <ele>388.79998779297</ele>
        <time>2017-01-11T14:25:40Z</time>
      </trkpt>
      <trkpt lat="43.42638" lon="6.03481">
        <ele>389.79998779297</ele>
        <time>2017-01-11T14:25:46Z</time>
      </trkpt>
      <trkpt lat="43.4264" lon="6.03486">
        <ele>390</ele>
        <time>2017-01-11T14:25:50Z</time>
      </trkpt>
      <trkpt lat="43.42643" lon="6.03491">
        <ele>390.20001220703</ele>
        <time>2017-01-11T14:25:54Z</time>
      </trkpt>
      <trkpt lat="43.4265" lon="6.03523">
        <ele>390.60000610352</ele>
        <time>2017-01-11T14:26:12Z</time>
      </trkpt>
      <trkpt lat="43.42651" lon="6.03527">
        <ele>390.39999389648</ele>
        <time>2017-01-11T14:26:14Z</time>
      </trkpt>
      <trkpt lat="43.42652" lon="6.03531">
        <ele>390.20001220703</ele>
        <time>2017-01-11T14:26:16Z</time>
      </trkpt>
      <trkpt lat="43.42654" lon="6.0355">
        <ele>389.60000610352</ele>
        <time>2017-01-11T14:26:24Z</time>
      </trkpt>
      <trkpt lat="43.42655" lon="6.03555">
        <ele>389.60000610352</ele>
        <time>2017-01-11T14:26:26Z</time>
      </trkpt>
      <trkpt lat="43.42656" lon="6.03561">
        <ele>389.39999389648</ele>
        <time>2017-01-11T14:26:28Z</time>
      </trkpt>
      <trkpt lat="43.42656" lon="6.03566">
        <ele>389.60000610352</ele>
        <time>2017-01-11T14:26:30Z</time>
      </trkpt>
      <trkpt lat="43.42659" lon="6.0358">
        <ele>388.79998779297</ele>
        <time>2017-01-11T14:26:34Z</time>
      </trkpt>
      <trkpt lat="43.4266" lon="6.03588">
        <ele>388.39999389648</ele>
        <time>2017-01-11T14:26:36Z</time>
      </trkpt>
      <trkpt lat="43.42668" lon="6.03605">
        <ele>388.20001220703</ele>
        <time>2017-01-11T14:26:43Z</time>
      </trkpt>
      <trkpt lat="43.42675" lon="6.03617">
        <ele>388.20001220703</ele>
        <time>2017-01-11T14:26:49Z</time>
      </trkpt>
      <trkpt lat="43.42681" lon="6.0365">
        <ele>388.20001220703</ele>
        <time>2017-01-11T14:27:01Z</time>
      </trkpt>
      <trkpt lat="43.42681" lon="6.03653">
        <ele>388.20001220703</ele>
        <time>2017-01-11T14:27:02Z</time>
      </trkpt>
      <trkpt lat="43.42681" lon="6.03658">
        <ele>387.79998779297</ele>
        <time>2017-01-11T14:27:04Z</time>
      </trkpt>
      <trkpt lat="43.42681" lon="6.03662">
        <ele>387.60000610352</ele>
        <time>2017-01-11T14:27:06Z</time>
      </trkpt>
      <trkpt lat="43.42682" lon="6.0367">
        <ele>387</ele>
        <time>2017-01-11T14:27:11Z</time>
      </trkpt>
      <trkpt lat="43.42682" lon="6.03673">
        <ele>387</ele>
        <time>2017-01-11T14:27:20Z</time>
      </trkpt>
      <trkpt lat="43.42682" lon="6.03675">
        <ele>387</ele>
        <time>2017-01-11T14:27:21Z</time>
      </trkpt>
      <trkpt lat="43.42681" lon="6.0368">
        <ele>386.79998779297</ele>
        <time>2017-01-11T14:27:23Z</time>
      </trkpt>
      <trkpt lat="43.42681" lon="6.03683">
        <ele>386.60000610352</ele>
        <time>2017-01-11T14:27:24Z</time>
      </trkpt>
      <trkpt lat="43.42679" lon="6.03692">
        <ele>385.60000610352</ele>
        <time>2017-01-11T14:27:28Z</time>
      </trkpt>
      <trkpt lat="43.42679" lon="6.03697">
        <ele>385.20001220703</ele>
        <time>2017-01-11T14:27:30Z</time>
      </trkpt>
      <trkpt lat="43.42681" lon="6.03718">
        <ele>384.20001220703</ele>
        <time>2017-01-11T14:27:37Z</time>
      </trkpt>
      <trkpt lat="43.42681" lon="6.03737">
        <ele>381.60000610352</ele>
        <time>2017-01-11T14:27:44Z</time>
      </trkpt>
      <trkpt lat="43.4268" lon="6.03745">
        <ele>380.60000610352</ele>
        <time>2017-01-11T14:27:47Z</time>
      </trkpt>
      <trkpt lat="43.4268" lon="6.0375">
        <ele>379.39999389648</ele>
        <time>2017-01-11T14:27:49Z</time>
      </trkpt>
      <trkpt lat="43.42678" lon="6.03764">
        <ele>377.79998779297</ele>
        <time>2017-01-11T14:27:54Z</time>
      </trkpt>
      <trkpt lat="43.42678" lon="6.03772">
        <ele>377.60000610352</ele>
        <time>2017-01-11T14:27:57Z</time>
      </trkpt>
      <trkpt lat="43.42678" lon="6.03777">
        <ele>377.20001220703</ele>
        <time>2017-01-11T14:27:59Z</time>
      </trkpt>
      <trkpt lat="43.42677" lon="6.0379">
        <ele>375</ele>
        <time>2017-01-11T14:28:04Z</time>
      </trkpt>
      <trkpt lat="43.42675" lon="6.03798">
        <ele>373.60000610352</ele>
        <time>2017-01-11T14:28:07Z</time>
      </trkpt>
      <trkpt lat="43.42675" lon="6.03801">
        <ele>373</ele>
        <time>2017-01-11T14:28:08Z</time>
      </trkpt>
      <trkpt lat="43.42676" lon="6.03803">
        <ele>372.60000610352</ele>
        <time>2017-01-11T14:28:09Z</time>
      </trkpt>
      <trkpt lat="43.42676" lon="6.03804">
        <ele>372.39999389648</ele>
        <time>2017-01-11T14:28:10Z</time>
      </trkpt>
      <trkpt lat="43.42681" lon="6.03809">
        <ele>371.20001220703</ele>
        <time>2017-01-11T14:28:15Z</time>
      </trkpt>
      <trkpt lat="43.42684" lon="6.03818">
        <ele>369.79998779297</ele>
        <time>2017-01-11T14:28:19Z</time>
      </trkpt>
      <trkpt lat="43.42686" lon="6.03833">
        <ele>368.79998779297</ele>
        <time>2017-01-11T14:28:24Z</time>
      </trkpt>
      <trkpt lat="43.42687" lon="6.03839">
        <ele>367.60000610352</ele>
        <time>2017-01-11T14:28:26Z</time>
      </trkpt>
      <trkpt lat="43.42688" lon="6.03848">
        <ele>366.20001220703</ele>
        <time>2017-01-11T14:28:29Z</time>
      </trkpt>
      <trkpt lat="43.42688" lon="6.03858">
        <ele>365</ele>
        <time>2017-01-11T14:28:32Z</time>
      </trkpt>
      <trkpt lat="43.42689" lon="6.03866">
        <ele>364.20001220703</ele>
        <time>2017-01-11T14:28:35Z</time>
      </trkpt>
      <trkpt lat="43.42688" lon="6.03876">
        <ele>363.60000610352</ele>
        <time>2017-01-11T14:28:39Z</time>
      </trkpt>
      <trkpt lat="43.42687" lon="6.03886">
        <ele>362.60000610352</ele>
        <time>2017-01-11T14:28:44Z</time>
      </trkpt>
      <trkpt lat="43.42687" lon="6.03888">
        <ele>362.60000610352</ele>
        <time>2017-01-11T14:28:45Z</time>
      </trkpt>
      <trkpt lat="43.42686" lon="6.03891">
        <ele>362.60000610352</ele>
        <time>2017-01-11T14:28:53Z</time>
      </trkpt>
      <trkpt lat="43.42687" lon="6.03895">
        <ele>362.60000610352</ele>
        <time>2017-01-11T14:28:56Z</time>
      </trkpt>
      <trkpt lat="43.42688" lon="6.03899">
        <ele>362.20001220703</ele>
        <time>2017-01-11T14:29:00Z</time>
      </trkpt>
      <trkpt lat="43.4269" lon="6.03902">
        <ele>362</ele>
        <time>2017-01-11T14:29:02Z</time>
      </trkpt>
      <trkpt lat="43.42692" lon="6.03906">
        <ele>361.60000610352</ele>
        <time>2017-01-11T14:29:04Z</time>
      </trkpt>
      <trkpt lat="43.42693" lon="6.03913">
        <ele>360.20001220703</ele>
        <time>2017-01-11T14:29:07Z</time>
      </trkpt>
      <trkpt lat="43.42691" lon="6.03927">
        <ele>359.20001220703</ele>
        <time>2017-01-11T14:29:11Z</time>
      </trkpt>
      <trkpt lat="43.42693" lon="6.0393">
        <ele>359</ele>
        <time>2017-01-11T14:29:12Z</time>
      </trkpt>
      <trkpt lat="43.42706" lon="6.03948">
        <ele>358</ele>
        <time>2017-01-11T14:29:20Z</time>
      </trkpt>
      <trkpt lat="43.42725" lon="6.03949">
        <ele>357</ele>
        <time>2017-01-11T14:29:28Z</time>
      </trkpt>
      <trkpt lat="43.42729" lon="6.03957">
        <ele>356.20001220703</ele>
        <time>2017-01-11T14:29:31Z</time>
      </trkpt>
      <trkpt lat="43.42725" lon="6.03977">
        <ele>356</ele>
        <time>2017-01-11T14:29:37Z</time>
      </trkpt>
      <trkpt lat="43.42723" lon="6.03984">
        <ele>355.79998779297</ele>
        <time>2017-01-11T14:29:40Z</time>
      </trkpt>
      <trkpt lat="43.42704" lon="6.04027">
        <ele>354.60000610352</ele>
        <time>2017-01-11T14:29:55Z</time>
      </trkpt>
      <trkpt lat="43.42697" lon="6.04048">
        <ele>353.39999389648</ele>
        <time>2017-01-11T14:30:00Z</time>
      </trkpt>
      <trkpt lat="43.42694" lon="6.04068">
        <ele>353</ele>
        <time>2017-01-11T14:30:05Z</time>
      </trkpt>
      <trkpt lat="43.42693" lon="6.04103">
        <ele>353.79998779297</ele>
        <time>2017-01-11T14:30:15Z</time>
      </trkpt>
      <trkpt lat="43.42675" lon="6.04114">
        <ele>352</ele>
        <time>2017-01-11T14:30:21Z</time>
      </trkpt>
      <trkpt lat="43.42671" lon="6.04116">
        <ele>351.39999389648</ele>
        <time>2017-01-11T14:30:22Z</time>
      </trkpt>
      <trkpt lat="43.42664" lon="6.04123">
        <ele>351</ele>
        <time>2017-01-11T14:30:24Z</time>
      </trkpt>
      <trkpt lat="43.42662" lon="6.04128">
        <ele>350.79998779297</ele>
        <time>2017-01-11T14:30:25Z</time>
      </trkpt>
      <trkpt lat="43.42657" lon="6.0414">
        <ele>350.60000610352</ele>
        <time>2017-01-11T14:30:27Z</time>
      </trkpt>
      <trkpt lat="43.42653" lon="6.04156">
        <ele>350.20001220703</ele>
        <time>2017-01-11T14:30:30Z</time>
      </trkpt>
      <trkpt lat="43.42647" lon="6.04168">
        <ele>350</ele>
        <time>2017-01-11T14:30:32Z</time>
      </trkpt>
      <trkpt lat="43.42641" lon="6.04178">
        <ele>349.60000610352</ele>
        <time>2017-01-11T14:30:34Z</time>
      </trkpt>
      <trkpt lat="43.42638" lon="6.04183">
        <ele>349</ele>
        <time>2017-01-11T14:30:35Z</time>
      </trkpt>
      <trkpt lat="43.42636" lon="6.04194">
        <ele>348</ele>
        <time>2017-01-11T14:30:37Z</time>
      </trkpt>
      <trkpt lat="43.42639" lon="6.04217">
        <ele>347.20001220703</ele>
        <time>2017-01-11T14:30:41Z</time>
      </trkpt>
      <trkpt lat="43.4264" lon="6.04229">
        <ele>347</ele>
        <time>2017-01-11T14:30:43Z</time>
      </trkpt>
      <trkpt lat="43.42642" lon="6.04243">
        <ele>346</ele>
        <time>2017-01-11T14:30:46Z</time>
      </trkpt>
      <trkpt lat="43.42646" lon="6.04258">
        <ele>344.60000610352</ele>
        <time>2017-01-11T14:30:50Z</time>
      </trkpt>
      <trkpt lat="43.42648" lon="6.04274">
        <ele>343.79998779297</ele>
        <time>2017-01-11T14:30:53Z</time>
      </trkpt>
      <trkpt lat="43.42649" lon="6.04279">
        <ele>343.60000610352</ele>
        <time>2017-01-11T14:30:54Z</time>
      </trkpt>
      <trkpt lat="43.42649" lon="6.0429">
        <ele>343.39999389648</ele>
        <time>2017-01-11T14:30:57Z</time>
      </trkpt>
      <trkpt lat="43.42649" lon="6.04291">
        <ele>342.79998779297</ele>
        <time>2017-01-11T14:31:20Z</time>
      </trkpt>
      <trkpt lat="43.42648" lon="6.04291">
        <ele>343</ele>
        <time>2017-01-11T14:31:54Z</time>
      </trkpt>
      <trkpt lat="43.42648" lon="6.04293">
        <ele>343.39999389648</ele>
        <time>2017-01-11T14:32:42Z</time>
      </trkpt>
      <trkpt lat="43.42648" lon="6.04292">
        <ele>342.79998779297</ele>
        <time>2017-01-11T14:33:06Z</time>
      </trkpt>
      <trkpt lat="43.42648" lon="6.04294">
        <ele>342.79998779297</ele>
        <time>2017-01-11T14:33:47Z</time>
      </trkpt>
      <trkpt lat="43.42648" lon="6.04295">
        <ele>342.79998779297</ele>
        <time>2017-01-11T14:33:59Z</time>
      </trkpt>
      <trkpt lat="43.42649" lon="6.04294">
        <ele>342.79998779297</ele>
        <time>2017-01-11T14:34:08Z</time>
      </trkpt>
      <trkpt lat="43.42649" lon="6.04294">
        <ele>342.79998779297</ele>
        <time>2017-01-11T14:34:14Z</time>
      </trkpt>
      <trkpt lat="43.42648" lon="6.04295">
        <ele>342.79998779297</ele>
        <time>2017-01-11T14:34:25Z</time>
      </trkpt>
      <trkpt lat="43.42649" lon="6.04295">
        <ele>342.79998779297</ele>
        <time>2017-01-11T14:34:26Z</time>
      </trkpt>
      <trkpt lat="43.42649" lon="6.04294">
        <ele>342.79998779297</ele>
        <time>2017-01-11T14:34:35Z</time>
      </trkpt>
      <trkpt lat="43.42649" lon="6.04294">
        <ele>342.79998779297</ele>
        <time>2017-01-11T14:34:37Z</time>
      </trkpt>
      <trkpt lat="43.42649" lon="6.04294">
        <ele>342.79998779297</ele>
        <time>2017-01-11T14:34:45Z</time>
      </trkpt>
      <trkpt lat="43.42648" lon="6.04295">
        <ele>342.79998779297</ele>
        <time>2017-01-11T14:35:15Z</time>
      </trkpt>
      <trkpt lat="43.42648" lon="6.04297">
        <ele>342.79998779297</ele>
        <time>2017-01-11T14:35:26Z</time>
      </trkpt>
      <trkpt lat="43.42648" lon="6.04297">
        <ele>342.79998779297</ele>
        <time>2017-01-11T14:36:04Z</time>
      </trkpt>
      <trkpt lat="43.42648" lon="6.04296">
        <ele>342.79998779297</ele>
        <time>2017-01-11T14:36:15Z</time>
      </trkpt>
      <trkpt lat="43.42649" lon="6.0429">
        <ele>342.79998779297</ele>
        <time>2017-01-11T14:36:35Z</time>
      </trkpt>
      <trkpt lat="43.42648" lon="6.04291">
        <ele>342.79998779297</ele>
        <time>2017-01-11T14:36:48Z</time>
      </trkpt>
      <trkpt lat="43.42648" lon="6.04291">
        <ele>342.79998779297</ele>
        <time>2017-01-11T14:36:52Z</time>
      </trkpt>
      <trkpt lat="43.42648" lon="6.0429">
        <ele>342.79998779297</ele>
        <time>2017-01-11T14:36:59Z</time>
      </trkpt>
      <trkpt lat="43.42648" lon="6.0429">
        <ele>342.79998779297</ele>
        <time>2017-01-11T14:37:05Z</time>
      </trkpt>
      <trkpt lat="43.42648" lon="6.0429">
        <ele>342.79998779297</ele>
        <time>2017-01-11T14:37:31Z</time>
      </trkpt>
      <trkpt lat="43.42647" lon="6.04292">
        <ele>342.79998779297</ele>
        <time>2017-01-11T14:38:29Z</time>
      </trkpt>
      <trkpt lat="43.42647" lon="6.04292">
        <ele>342.79998779297</ele>
        <time>2017-01-11T14:38:32Z</time>
      </trkpt>
      <trkpt lat="43.42648" lon="6.04292">
        <ele>342.79998779297</ele>
        <time>2017-01-11T14:38:35Z</time>
      </trkpt>
      <trkpt lat="43.42648" lon="6.04293">
        <ele>342.79998779297</ele>
        <time>2017-01-11T14:38:39Z</time>
      </trkpt>
      <trkpt lat="43.42648" lon="6.04293">
        <ele>342.79998779297</ele>
        <time>2017-01-11T14:38:45Z</time>
      </trkpt>
      <trkpt lat="43.42648" lon="6.04293">
        <ele>342.79998779297</ele>
        <time>2017-01-11T14:38:58Z</time>
      </trkpt>
      <trkpt lat="43.42648" lon="6.04294">
        <ele>342.79998779297</ele>
        <time>2017-01-11T14:39:13Z</time>
      </trkpt>
      <trkpt lat="43.42648" lon="6.04294">
        <ele>342.79998779297</ele>
        <time>2017-01-11T14:39:14Z</time>
      </trkpt>
      <trkpt lat="43.42648" lon="6.04294">
        <ele>342.79998779297</ele>
        <time>2017-01-11T14:39:25Z</time>
      </trkpt>
      <trkpt lat="43.42648" lon="6.04294">
        <ele>342.79998779297</ele>
        <time>2017-01-11T14:39:29Z</time>
      </trkpt>
      <trkpt lat="43.42648" lon="6.04294">
        <ele>342.79998779297</ele>
        <time>2017-01-11T14:39:40Z</time>
      </trkpt>
      <trkpt lat="43.42648" lon="6.04294">
        <ele>342.79998779297</ele>
        <time>2017-01-11T14:40:09Z</time>
      </trkpt>
      <trkpt lat="43.42649" lon="6.04295">
        <ele>342.79998779297</ele>
        <time>2017-01-11T14:40:24Z</time>
      </trkpt>
      <trkpt lat="43.42651" lon="6.04296">
        <ele>343</ele>
        <time>2017-01-11T14:40:26Z</time>
      </trkpt>
      <trkpt lat="43.42652" lon="6.04298">
        <ele>343.20001220703</ele>
        <time>2017-01-11T14:40:27Z</time>
      </trkpt>
      <trkpt lat="43.42655" lon="6.04303">
        <ele>342.39999389648</ele>
        <time>2017-01-11T14:40:30Z</time>
      </trkpt>
      <trkpt lat="43.42657" lon="6.04315">
        <ele>342.60000610352</ele>
        <time>2017-01-11T14:40:34Z</time>
      </trkpt>
      <trkpt lat="43.42653" lon="6.04325">
        <ele>341.20001220703</ele>
        <time>2017-01-11T14:40:37Z</time>
      </trkpt>
      <trkpt lat="43.42653" lon="6.04351">
        <ele>340</ele>
        <time>2017-01-11T14:40:43Z</time>
      </trkpt>
      <trkpt lat="43.42659" lon="6.04366">
        <ele>338.79998779297</ele>
        <time>2017-01-11T14:40:46Z</time>
      </trkpt>
      <trkpt lat="43.42661" lon="6.04371">
        <ele>338.39999389648</ele>
        <time>2017-01-11T14:40:47Z</time>
      </trkpt>
      <trkpt lat="43.42663" lon="6.04383">
        <ele>337.60000610352</ele>
        <time>2017-01-11T14:40:49Z</time>
      </trkpt>
      <trkpt lat="43.42661" lon="6.04409">
        <ele>336.60000610352</ele>
        <time>2017-01-11T14:40:54Z</time>
      </trkpt>
      <trkpt lat="43.42663" lon="6.04439">
        <ele>335</ele>
        <time>2017-01-11T14:41:00Z</time>
      </trkpt>
      <trkpt lat="43.42665" lon="6.0445">
        <ele>333.79998779297</ele>
        <time>2017-01-11T14:41:02Z</time>
      </trkpt>
      <trkpt lat="43.42668" lon="6.04474">
        <ele>332.60000610352</ele>
        <time>2017-01-11T14:41:06Z</time>
      </trkpt>
      <trkpt lat="43.4267" lon="6.04495">
        <ele>331.60000610352</ele>
        <time>2017-01-11T14:41:10Z</time>
      </trkpt>
      <trkpt lat="43.42672" lon="6.04506">
        <ele>331</ele>
        <time>2017-01-11T14:41:12Z</time>
      </trkpt>
      <trkpt lat="43.42674" lon="6.04511">
        <ele>330.60000610352</ele>
        <time>2017-01-11T14:41:13Z</time>
      </trkpt>
      <trkpt lat="43.42676" lon="6.04517">
        <ele>330.20001220703</ele>
        <time>2017-01-11T14:41:14Z</time>
      </trkpt>
      <trkpt lat="43.42679" lon="6.04521">
        <ele>329.79998779297</ele>
        <time>2017-01-11T14:41:15Z</time>
      </trkpt>
      <trkpt lat="43.42681" lon="6.04525">
        <ele>329.20001220703</ele>
        <time>2017-01-11T14:41:16Z</time>
      </trkpt>
      <trkpt lat="43.42685" lon="6.04534">
        <ele>328</ele>
        <time>2017-01-11T14:41:18Z</time>
      </trkpt>
      <trkpt lat="43.42695" lon="6.04571">
        <ele>326.20001220703</ele>
        <time>2017-01-11T14:41:24Z</time>
      </trkpt>
      <trkpt lat="43.42697" lon="6.04585">
        <ele>325.39999389648</ele>
        <time>2017-01-11T14:41:26Z</time>
      </trkpt>
      <trkpt lat="43.42698" lon="6.04592">
        <ele>325</ele>
        <time>2017-01-11T14:41:27Z</time>
      </trkpt>
      <trkpt lat="43.42699" lon="6.04607">
        <ele>324.39999389648</ele>
        <time>2017-01-11T14:41:29Z</time>
      </trkpt>
      <trkpt lat="43.427" lon="6.04613">
        <ele>324</ele>
        <time>2017-01-11T14:41:30Z</time>
      </trkpt>
      <trkpt lat="43.427" lon="6.04627">
        <ele>323.39999389648</ele>
        <time>2017-01-11T14:41:32Z</time>
      </trkpt>
      <trkpt lat="43.42699" lon="6.0464">
        <ele>323</ele>
        <time>2017-01-11T14:41:34Z</time>
      </trkpt>
      <trkpt lat="43.42703" lon="6.04684">
        <ele>320.79998779297</ele>
        <time>2017-01-11T14:41:41Z</time>
      </trkpt>
      <trkpt lat="43.42703" lon="6.04691">
        <ele>320.60000610352</ele>
        <time>2017-01-11T14:41:42Z</time>
      </trkpt>
      <trkpt lat="43.42703" lon="6.04706">
        <ele>320.20001220703</ele>
        <time>2017-01-11T14:41:45Z</time>
      </trkpt>
      <trkpt lat="43.42703" lon="6.04711">
        <ele>320.20001220703</ele>
        <time>2017-01-11T14:41:46Z</time>
      </trkpt>
      <trkpt lat="43.42706" lon="6.0474">
        <ele>319.39999389648</ele>
        <time>2017-01-11T14:41:52Z</time>
      </trkpt>
      <trkpt lat="43.42706" lon="6.04749">
        <ele>318.20001220703</ele>
        <time>2017-01-11T14:41:54Z</time>
      </trkpt>
      <trkpt lat="43.42706" lon="6.04753">
        <ele>317.39999389648</ele>
        <time>2017-01-11T14:41:55Z</time>
      </trkpt>
      <trkpt lat="43.42706" lon="6.04763">
        <ele>317</ele>
        <time>2017-01-11T14:41:57Z</time>
      </trkpt>
      <trkpt lat="43.42707" lon="6.0477">
        <ele>316.39999389648</ele>
        <time>2017-01-11T14:41:58Z</time>
      </trkpt>
      <trkpt lat="43.42709" lon="6.04781">
        <ele>315.79998779297</ele>
        <time>2017-01-11T14:42:00Z</time>
      </trkpt>
      <trkpt lat="43.42715" lon="6.04802">
        <ele>315</ele>
        <time>2017-01-11T14:42:05Z</time>
      </trkpt>
      <trkpt lat="43.42719" lon="6.04803">
        <ele>314.39999389648</ele>
        <time>2017-01-11T14:42:06Z</time>
      </trkpt>
      <trkpt lat="43.42728" lon="6.04806">
        <ele>313.20001220703</ele>
        <time>2017-01-11T14:42:09Z</time>
      </trkpt>
      <trkpt lat="43.42735" lon="6.04808">
        <ele>313</ele>
        <time>2017-01-11T14:42:11Z</time>
      </trkpt>
      <trkpt lat="43.42747" lon="6.04805">
        <ele>313.39999389648</ele>
        <time>2017-01-11T14:42:16Z</time>
      </trkpt>
      <trkpt lat="43.42751" lon="6.04803">
        <ele>314.20001220703</ele>
        <time>2017-01-11T14:42:19Z</time>
      </trkpt>
      <trkpt lat="43.42754" lon="6.04804">
        <ele>314.60000610352</ele>
        <time>2017-01-11T14:42:33Z</time>
      </trkpt>
      <trkpt lat="43.42754" lon="6.04804">
        <ele>314.60000610352</ele>
        <time>2017-01-11T14:42:38Z</time>
      </trkpt>
      <trkpt lat="43.42754" lon="6.04804">
        <ele>314.39999389648</ele>
        <time>2017-01-11T14:42:49Z</time>
      </trkpt>
      <trkpt lat="43.42754" lon="6.04804">
        <ele>314.60000610352</ele>
        <time>2017-01-11T14:42:53Z</time>
      </trkpt>
      <trkpt lat="43.42754" lon="6.04804">
        <ele>314.39999389648</ele>
        <time>2017-01-11T14:43:06Z</time>
      </trkpt>
      <trkpt lat="43.42754" lon="6.04804">
        <ele>314.39999389648</ele>
        <time>2017-01-11T14:43:09Z</time>
      </trkpt>
      <trkpt lat="43.42754" lon="6.04804">
        <ele>314.39999389648</ele>
        <time>2017-01-11T14:43:15Z</time>
      </trkpt>
      <trkpt lat="43.42754" lon="6.04804">
        <ele>314.60000610352</ele>
        <time>2017-01-11T14:43:38Z</time>
      </trkpt>
      <trkpt lat="43.42754" lon="6.04804">
        <ele>314.79998779297</ele>
        <time>2017-01-11T14:43:59Z</time>
      </trkpt>
      <trkpt lat="43.42759" lon="6.04809">
        <ele>314.20001220703</ele>
        <time>2017-01-11T14:44:14Z</time>
      </trkpt>
      <trkpt lat="43.42772" lon="6.04819">
        <ele>313</ele>
        <time>2017-01-11T14:44:19Z</time>
      </trkpt>
      <trkpt lat="43.42779" lon="6.04824">
        <ele>312</ele>
        <time>2017-01-11T14:44:21Z</time>
      </trkpt>
      <trkpt lat="43.4279" lon="6.0483">
        <ele>311.20001220703</ele>
        <time>2017-01-11T14:44:24Z</time>
      </trkpt>
      <trkpt lat="43.42802" lon="6.0484">
        <ele>311</ele>
        <time>2017-01-11T14:44:27Z</time>
      </trkpt>
      <trkpt lat="43.42811" lon="6.0485">
        <ele>311.60000610352</ele>
        <time>2017-01-11T14:44:30Z</time>
      </trkpt>
      <trkpt lat="43.42815" lon="6.04852">
        <ele>312</ele>
        <time>2017-01-11T14:44:31Z</time>
      </trkpt>
      <trkpt lat="43.42821" lon="6.04853">
        <ele>312.79998779297</ele>
        <time>2017-01-11T14:44:33Z</time>
      </trkpt>
      <trkpt lat="43.42823" lon="6.04853">
        <ele>313.60000610352</ele>
        <time>2017-01-11T14:44:34Z</time>
      </trkpt>
      <trkpt lat="43.42827" lon="6.04852">
        <ele>314.60000610352</ele>
        <time>2017-01-11T14:44:36Z</time>
      </trkpt>
      <trkpt lat="43.4283" lon="6.04852">
        <ele>315</ele>
        <time>2017-01-11T14:44:37Z</time>
      </trkpt>
      <trkpt lat="43.42832" lon="6.04851">
        <ele>315</ele>
        <time>2017-01-11T14:44:38Z</time>
      </trkpt>
      <trkpt lat="43.42834" lon="6.04852">
        <ele>315.39999389648</ele>
        <time>2017-01-11T14:44:39Z</time>
      </trkpt>
      <trkpt lat="43.42839" lon="6.04853">
        <ele>315.79998779297</ele>
        <time>2017-01-11T14:44:41Z</time>
      </trkpt>
      <trkpt lat="43.42847" lon="6.04859">
        <ele>317</ele>
        <time>2017-01-11T14:44:46Z</time>
      </trkpt>
      <trkpt lat="43.42855" lon="6.04871">
        <ele>317.79998779297</ele>
        <time>2017-01-11T14:44:51Z</time>
      </trkpt>
      <trkpt lat="43.42882" lon="6.04919">
        <ele>317.60000610352</ele>
        <time>2017-01-11T14:45:12Z</time>
      </trkpt>
      <trkpt lat="43.42886" lon="6.0492">
        <ele>318</ele>
        <time>2017-01-11T14:45:15Z</time>
      </trkpt>
      <trkpt lat="43.42901" lon="6.04919">
        <ele>317.79998779297</ele>
        <time>2017-01-11T14:45:24Z</time>
      </trkpt>
      <trkpt lat="43.42926" lon="6.04918">
        <ele>318.39999389648</ele>
        <time>2017-01-11T14:45:38Z</time>
      </trkpt>
      <trkpt lat="43.42927" lon="6.04923">
        <ele>319</ele>
        <time>2017-01-11T14:45:41Z</time>
      </trkpt>
      <trkpt lat="43.42929" lon="6.04928">
        <ele>319.39999389648</ele>
        <time>2017-01-11T14:45:46Z</time>
      </trkpt>
      <trkpt lat="43.42929" lon="6.04929">
        <ele>320</ele>
        <time>2017-01-11T14:45:51Z</time>
      </trkpt>
      <trkpt lat="43.42929" lon="6.04929">
        <ele>320.39999389648</ele>
        <time>2017-01-11T14:45:53Z</time>
      </trkpt>
      <trkpt lat="43.42929" lon="6.04929">
        <ele>320.39999389648</ele>
        <time>2017-01-11T14:45:59Z</time>
      </trkpt>
      <trkpt lat="43.42929" lon="6.04929">
        <ele>320.60000610352</ele>
        <time>2017-01-11T14:46:04Z</time>
      </trkpt>
      <trkpt lat="43.42928" lon="6.04929">
        <ele>320.60000610352</ele>
        <time>2017-01-11T14:46:07Z</time>
      </trkpt>
      <trkpt lat="43.42928" lon="6.0493">
        <ele>320.39999389648</ele>
        <time>2017-01-11T14:46:11Z</time>
      </trkpt>
      <trkpt lat="43.42929" lon="6.0493">
        <ele>320.39999389648</ele>
        <time>2017-01-11T14:46:17Z</time>
      </trkpt>
      <trkpt lat="43.4293" lon="6.04939">
        <ele>319.79998779297</ele>
        <time>2017-01-11T14:46:22Z</time>
      </trkpt>
      <trkpt lat="43.42929" lon="6.04953">
        <ele>320</ele>
        <time>2017-01-11T14:46:26Z</time>
      </trkpt>
      <trkpt lat="43.42928" lon="6.0496">
        <ele>320.20001220703</ele>
        <time>2017-01-11T14:46:28Z</time>
      </trkpt>
      <trkpt lat="43.42928" lon="6.04965">
        <ele>320.39999389648</ele>
        <time>2017-01-11T14:46:29Z</time>
      </trkpt>
      <trkpt lat="43.42927" lon="6.04969">
        <ele>320.60000610352</ele>
        <time>2017-01-11T14:46:30Z</time>
      </trkpt>
      <trkpt lat="43.42924" lon="6.0499">
        <ele>320.60000610352</ele>
        <time>2017-01-11T14:46:35Z</time>
      </trkpt>
      <trkpt lat="43.42922" lon="6.05002">
        <ele>320.60000610352</ele>
        <time>2017-01-11T14:46:38Z</time>
      </trkpt>
      <trkpt lat="43.42921" lon="6.05013">
        <ele>321.20001220703</ele>
        <time>2017-01-11T14:46:41Z</time>
      </trkpt>
      <trkpt lat="43.42915" lon="6.05071">
        <ele>322.20001220703</ele>
        <time>2017-01-11T14:46:56Z</time>
      </trkpt>
      <trkpt lat="43.42911" lon="6.05107">
        <ele>322.79998779297</ele>
        <time>2017-01-11T14:47:05Z</time>
      </trkpt>
      <trkpt lat="43.4291" lon="6.05114">
        <ele>323.39999389648</ele>
        <time>2017-01-11T14:47:07Z</time>
      </trkpt>
      <trkpt lat="43.42909" lon="6.05124">
        <ele>323.60000610352</ele>
        <time>2017-01-11T14:47:10Z</time>
      </trkpt>
      <trkpt lat="43.42907" lon="6.05139">
        <ele>323.60000610352</ele>
        <time>2017-01-11T14:47:14Z</time>
      </trkpt>
      <trkpt lat="43.42904" lon="6.05158">
        <ele>324.60000610352</ele>
        <time>2017-01-11T14:47:19Z</time>
      </trkpt>
      <trkpt lat="43.42902" lon="6.05181">
        <ele>325.60000610352</ele>
        <time>2017-01-11T14:47:26Z</time>
      </trkpt>
      <trkpt lat="43.42899" lon="6.05203">
        <ele>326</ele>
        <time>2017-01-11T14:47:34Z</time>
      </trkpt>
      <trkpt lat="43.42897" lon="6.05212">
        <ele>326</ele>
        <time>2017-01-11T14:47:37Z</time>
      </trkpt>
      <trkpt lat="43.42896" lon="6.05227">
        <ele>326</ele>
        <time>2017-01-11T14:47:42Z</time>
      </trkpt>
      <trkpt lat="43.42893" lon="6.05247">
        <ele>326.20001220703</ele>
        <time>2017-01-11T14:47:49Z</time>
      </trkpt>
      <trkpt lat="43.4289" lon="6.05283">
        <ele>326.39999389648</ele>
        <time>2017-01-11T14:48:01Z</time>
      </trkpt>
      <trkpt lat="43.42886" lon="6.05312">
        <ele>326.39999389648</ele>
        <time>2017-01-11T14:48:09Z</time>
      </trkpt>
      <trkpt lat="43.42886" lon="6.05321">
        <ele>326.39999389648</ele>
        <time>2017-01-11T14:48:11Z</time>
      </trkpt>
      <trkpt lat="43.42883" lon="6.05336">
        <ele>326</ele>
        <time>2017-01-11T14:48:14Z</time>
      </trkpt>
      <trkpt lat="43.42879" lon="6.05358">
        <ele>325.20001220703</ele>
        <time>2017-01-11T14:48:18Z</time>
      </trkpt>
      <trkpt lat="43.42877" lon="6.0537">
        <ele>325</ele>
        <time>2017-01-11T14:48:20Z</time>
      </trkpt>
      <trkpt lat="43.42876" lon="6.05384">
        <ele>324.39999389648</ele>
        <time>2017-01-11T14:48:22Z</time>
      </trkpt>
      <trkpt lat="43.42876" lon="6.05399">
        <ele>323.20001220703</ele>
        <time>2017-01-11T14:48:24Z</time>
      </trkpt>
      <trkpt lat="43.42876" lon="6.05407">
        <ele>322.79998779297</ele>
        <time>2017-01-11T14:48:25Z</time>
      </trkpt>
      <trkpt lat="43.42874" lon="6.05422">
        <ele>322.20001220703</ele>
        <time>2017-01-11T14:48:27Z</time>
      </trkpt>
      <trkpt lat="43.42868" lon="6.05468">
        <ele>321</ele>
        <time>2017-01-11T14:48:33Z</time>
      </trkpt>
      <trkpt lat="43.42863" lon="6.05522">
        <ele>320.79998779297</ele>
        <time>2017-01-11T14:48:42Z</time>
      </trkpt>
      <trkpt lat="43.42863" lon="6.05527">
        <ele>320.79998779297</ele>
        <time>2017-01-11T14:48:43Z</time>
      </trkpt>
      <trkpt lat="43.42857" lon="6.05556">
        <ele>320</ele>
        <time>2017-01-11T14:48:48Z</time>
      </trkpt>
      <trkpt lat="43.42853" lon="6.05595">
        <ele>321.20001220703</ele>
        <time>2017-01-11T14:48:56Z</time>
      </trkpt>
      <trkpt lat="43.42849" lon="6.05629">
        <ele>321.20001220703</ele>
        <time>2017-01-11T14:49:04Z</time>
      </trkpt>
      <trkpt lat="43.42847" lon="6.05643">
        <ele>321.39999389648</ele>
        <time>2017-01-11T14:49:08Z</time>
      </trkpt>
      <trkpt lat="43.42844" lon="6.0567">
        <ele>322.20001220703</ele>
        <time>2017-01-11T14:49:16Z</time>
      </trkpt>
      <trkpt lat="43.42838" lon="6.05719">
        <ele>322</ele>
        <time>2017-01-11T14:49:31Z</time>
      </trkpt>
      <trkpt lat="43.42831" lon="6.05729">
        <ele>321.79998779297</ele>
        <time>2017-01-11T14:49:36Z</time>
      </trkpt>
      <trkpt lat="43.42828" lon="6.05731">
        <ele>321.60000610352</ele>
        <time>2017-01-11T14:49:39Z</time>
      </trkpt>
      <trkpt lat="43.42827" lon="6.05732">
        <ele>322.20001220703</ele>
        <time>2017-01-11T14:49:47Z</time>
      </trkpt>
      <trkpt lat="43.42827" lon="6.05732">
        <ele>322.20001220703</ele>
        <time>2017-01-11T14:49:57Z</time>
      </trkpt>
      <trkpt lat="43.42827" lon="6.05731">
        <ele>322</ele>
        <time>2017-01-11T14:50:10Z</time>
      </trkpt>
      <trkpt lat="43.42826" lon="6.05731">
        <ele>321.79998779297</ele>
        <time>2017-01-11T14:50:12Z</time>
      </trkpt>
      <trkpt lat="43.42822" lon="6.05731">
        <ele>321.60000610352</ele>
        <time>2017-01-11T14:50:15Z</time>
      </trkpt>
      <trkpt lat="43.4282" lon="6.05732">
        <ele>321.60000610352</ele>
        <time>2017-01-11T14:50:16Z</time>
      </trkpt>
      <trkpt lat="43.42799" lon="6.05742">
        <ele>322</ele>
        <time>2017-01-11T14:50:26Z</time>
      </trkpt>
      <trkpt lat="43.42794" lon="6.0574">
        <ele>321.79998779297</ele>
        <time>2017-01-11T14:50:29Z</time>
      </trkpt>
      <trkpt lat="43.42791" lon="6.05737">
        <ele>321.39999389648</ele>
        <time>2017-01-11T14:50:31Z</time>
      </trkpt>
      <trkpt lat="43.42783" lon="6.05736">
        <ele>321.20001220703</ele>
        <time>2017-01-11T14:50:35Z</time>
      </trkpt>
      <trkpt lat="43.42778" lon="6.05733">
        <ele>321.20001220703</ele>
        <time>2017-01-11T14:50:37Z</time>
      </trkpt>
      <trkpt lat="43.42765" lon="6.05731">
        <ele>320.79998779297</ele>
        <time>2017-01-11T14:50:41Z</time>
      </trkpt>
      <trkpt lat="43.42757" lon="6.05735">
        <ele>320.39999389648</ele>
        <time>2017-01-11T14:50:44Z</time>
      </trkpt>
      <trkpt lat="43.42752" lon="6.05739">
        <ele>320</ele>
        <time>2017-01-11T14:50:46Z</time>
      </trkpt>
      <trkpt lat="43.4275" lon="6.05739">
        <ele>320</ele>
        <time>2017-01-11T14:50:47Z</time>
      </trkpt>
      <trkpt lat="43.42698" lon="6.05735">
        <ele>319</ele>
        <time>2017-01-11T14:51:03Z</time>
      </trkpt>
      <trkpt lat="43.42696" lon="6.05734">
        <ele>319</ele>
        <time>2017-01-11T14:51:04Z</time>
      </trkpt>
      <trkpt lat="43.42696" lon="6.05722">
        <ele>318.20001220703</ele>
        <time>2017-01-11T14:51:07Z</time>
      </trkpt>
      <trkpt lat="43.42698" lon="6.05718">
        <ele>317.79998779297</ele>
        <time>2017-01-11T14:51:08Z</time>
      </trkpt>
      <trkpt lat="43.427" lon="6.05706">
        <ele>316.79998779297</ele>
        <time>2017-01-11T14:51:12Z</time>
      </trkpt>
      <trkpt lat="43.42706" lon="6.05684">
        <ele>316</ele>
        <time>2017-01-11T14:51:18Z</time>
      </trkpt>
      <trkpt lat="43.42709" lon="6.0568">
        <ele>315.20001220703</ele>
        <time>2017-01-11T14:51:19Z</time>
      </trkpt>
      <trkpt lat="43.42712" lon="6.05677">
        <ele>314.20001220703</ele>
        <time>2017-01-11T14:51:20Z</time>
      </trkpt>
      <trkpt lat="43.42715" lon="6.05674">
        <ele>313.39999389648</ele>
        <time>2017-01-11T14:51:21Z</time>
      </trkpt>
      <trkpt lat="43.42723" lon="6.05659">
        <ele>312</ele>
        <time>2017-01-11T14:51:25Z</time>
      </trkpt>
      <trkpt lat="43.42725" lon="6.05655">
        <ele>311.39999389648</ele>
        <time>2017-01-11T14:51:26Z</time>
      </trkpt>
      <trkpt lat="43.42729" lon="6.05646">
        <ele>310.79998779297</ele>
        <time>2017-01-11T14:51:28Z</time>
      </trkpt>
      <trkpt lat="43.42738" lon="6.05635">
        <ele>310</ele>
        <time>2017-01-11T14:51:31Z</time>
      </trkpt>
      <trkpt lat="43.42741" lon="6.05632">
        <ele>309.60000610352</ele>
        <time>2017-01-11T14:51:32Z</time>
      </trkpt>
      <trkpt lat="43.42752" lon="6.05605">
        <ele>308.60000610352</ele>
        <time>2017-01-11T14:51:40Z</time>
      </trkpt>
      <trkpt lat="43.42753" lon="6.05596">
        <ele>307.39999389648</ele>
        <time>2017-01-11T14:51:42Z</time>
      </trkpt>
      <trkpt lat="43.42751" lon="6.05584">
        <ele>306.20001220703</ele>
        <time>2017-01-11T14:51:45Z</time>
      </trkpt>
      <trkpt lat="43.42735" lon="6.05558">
        <ele>304.20001220703</ele>
        <time>2017-01-11T14:51:53Z</time>
      </trkpt>
      <trkpt lat="43.42732" lon="6.05546">
        <ele>303</ele>
        <time>2017-01-11T14:51:56Z</time>
      </trkpt>
      <trkpt lat="43.42728" lon="6.05525">
        <ele>302</ele>
        <time>2017-01-11T14:52:00Z</time>
      </trkpt>
      <trkpt lat="43.42726" lon="6.05503">
        <ele>300.60000610352</ele>
        <time>2017-01-11T14:52:04Z</time>
      </trkpt>
      <trkpt lat="43.42724" lon="6.05486">
        <ele>299.39999389648</ele>
        <time>2017-01-11T14:52:07Z</time>
      </trkpt>
      <trkpt lat="43.42723" lon="6.05476">
        <ele>298.20001220703</ele>
        <time>2017-01-11T14:52:09Z</time>
      </trkpt>
      <trkpt lat="43.42722" lon="6.0547">
        <ele>298.20001220703</ele>
        <time>2017-01-11T14:52:10Z</time>
      </trkpt>
      <trkpt lat="43.42725" lon="6.05459">
        <ele>297.60000610352</ele>
        <time>2017-01-11T14:52:12Z</time>
      </trkpt>
      <trkpt lat="43.4273" lon="6.05447">
        <ele>297.79998779297</ele>
        <time>2017-01-11T14:52:14Z</time>
      </trkpt>
      <trkpt lat="43.42731" lon="6.05433">
        <ele>297</ele>
        <time>2017-01-11T14:52:16Z</time>
      </trkpt>
      <trkpt lat="43.42728" lon="6.0542">
        <ele>296.20001220703</ele>
        <time>2017-01-11T14:52:18Z</time>
      </trkpt>
      <trkpt lat="43.42727" lon="6.05413">
        <ele>296</ele>
        <time>2017-01-11T14:52:19Z</time>
      </trkpt>
      <trkpt lat="43.42722" lon="6.05397">
        <ele>295.39999389648</ele>
        <time>2017-01-11T14:52:22Z</time>
      </trkpt>
      <trkpt lat="43.4272" lon="6.05393">
        <ele>295</ele>
        <time>2017-01-11T14:52:23Z</time>
      </trkpt>
      <trkpt lat="43.42718" lon="6.05384">
        <ele>293.79998779297</ele>
        <time>2017-01-11T14:52:25Z</time>
      </trkpt>
      <trkpt lat="43.42719" lon="6.05361">
        <ele>292.60000610352</ele>
        <time>2017-01-11T14:52:29Z</time>
      </trkpt>
      <trkpt lat="43.4272" lon="6.05349">
        <ele>292.20001220703</ele>
        <time>2017-01-11T14:52:31Z</time>
      </trkpt>
      <trkpt lat="43.42717" lon="6.05339">
        <ele>291</ele>
        <time>2017-01-11T14:52:33Z</time>
      </trkpt>
      <trkpt lat="43.42706" lon="6.05337">
        <ele>289.79998779297</ele>
        <time>2017-01-11T14:52:36Z</time>
      </trkpt>
      <trkpt lat="43.42697" lon="6.05338">
        <ele>289.20001220703</ele>
        <time>2017-01-11T14:52:38Z</time>
      </trkpt>
      <trkpt lat="43.42681" lon="6.05335">
        <ele>288.60000610352</ele>
        <time>2017-01-11T14:52:42Z</time>
      </trkpt>
      <trkpt lat="43.42672" lon="6.05325">
        <ele>287.20001220703</ele>
        <time>2017-01-11T14:52:46Z</time>
      </trkpt>
      <trkpt lat="43.42668" lon="6.0532">
        <ele>286.20001220703</ele>
        <time>2017-01-11T14:52:48Z</time>
      </trkpt>
      <trkpt lat="43.42659" lon="6.05307">
        <ele>285</ele>
        <time>2017-01-11T14:52:52Z</time>
      </trkpt>
      <trkpt lat="43.42645" lon="6.05285">
        <ele>284.60000610352</ele>
        <time>2017-01-11T14:52:57Z</time>
      </trkpt>
      <trkpt lat="43.42638" lon="6.05278">
        <ele>283.79998779297</ele>
        <time>2017-01-11T14:52:59Z</time>
      </trkpt>
      <trkpt lat="43.42632" lon="6.05265">
        <ele>283</ele>
        <time>2017-01-11T14:53:20Z</time>
      </trkpt>
      <trkpt lat="43.42632" lon="6.05264">
        <ele>283</ele>
        <time>2017-01-11T14:53:25Z</time>
      </trkpt>
      <trkpt lat="43.42632" lon="6.05264">
        <ele>283.20001220703</ele>
        <time>2017-01-11T14:53:32Z</time>
      </trkpt>
      <trkpt lat="43.42632" lon="6.05265">
        <ele>282.79998779297</ele>
        <time>2017-01-11T14:53:55Z</time>
      </trkpt>
      <trkpt lat="43.42632" lon="6.05264">
        <ele>283</ele>
        <time>2017-01-11T14:54:01Z</time>
      </trkpt>
      <trkpt lat="43.42632" lon="6.05264">
        <ele>283</ele>
        <time>2017-01-11T14:54:21Z</time>
      </trkpt>
      <trkpt lat="43.42629" lon="6.05263">
        <ele>283</ele>
        <time>2017-01-11T14:54:23Z</time>
      </trkpt>
      <trkpt lat="43.42625" lon="6.05261">
        <ele>282.60000610352</ele>
        <time>2017-01-11T14:54:25Z</time>
      </trkpt>
      <trkpt lat="43.42617" lon="6.05257">
        <ele>281.79998779297</ele>
        <time>2017-01-11T14:54:29Z</time>
      </trkpt>
      <trkpt lat="43.42593" lon="6.05237">
        <ele>280.60000610352</ele>
        <time>2017-01-11T14:54:37Z</time>
      </trkpt>
      <trkpt lat="43.42581" lon="6.05228">
        <ele>280</ele>
        <time>2017-01-11T14:54:40Z</time>
      </trkpt>
      <trkpt lat="43.42569" lon="6.05222">
        <ele>280</ele>
        <time>2017-01-11T14:54:43Z</time>
      </trkpt>
      <trkpt lat="43.42534" lon="6.0522">
        <ele>279.39999389648</ele>
        <time>2017-01-11T14:54:53Z</time>
      </trkpt>
      <trkpt lat="43.42525" lon="6.0522">
        <ele>278.39999389648</ele>
        <time>2017-01-11T14:54:56Z</time>
      </trkpt>
      <trkpt lat="43.42496" lon="6.05217">
        <ele>277.39999389648</ele>
        <time>2017-01-11T14:55:04Z</time>
      </trkpt>
      <trkpt lat="43.42474" lon="6.05208">
        <ele>277</ele>
        <time>2017-01-11T14:55:10Z</time>
      </trkpt>
      <trkpt lat="43.42463" lon="6.05206">
        <ele>277.20001220703</ele>
        <time>2017-01-11T14:55:13Z</time>
      </trkpt>
      <trkpt lat="43.42441" lon="6.05212">
        <ele>275.60000610352</ele>
        <time>2017-01-11T14:55:19Z</time>
      </trkpt>
      <trkpt lat="43.4243" lon="6.05215">
        <ele>274</ele>
        <time>2017-01-11T14:55:21Z</time>
      </trkpt>
      <trkpt lat="43.42406" lon="6.05217">
        <ele>273</ele>
        <time>2017-01-11T14:55:26Z</time>
      </trkpt>
      <trkpt lat="43.42364" lon="6.05224">
        <ele>271.39999389648</ele>
        <time>2017-01-11T14:55:35Z</time>
      </trkpt>
      <trkpt lat="43.42349" lon="6.05229">
        <ele>270.20001220703</ele>
        <time>2017-01-11T14:55:38Z</time>
      </trkpt>
      <trkpt lat="43.42344" lon="6.05229">
        <ele>270.20001220703</ele>
        <time>2017-01-11T14:55:39Z</time>
      </trkpt>
      <trkpt lat="43.42332" lon="6.05226">
        <ele>269</ele>
        <time>2017-01-11T14:55:42Z</time>
      </trkpt>
      <trkpt lat="43.42323" lon="6.05224">
        <ele>267.60000610352</ele>
        <time>2017-01-11T14:55:45Z</time>
      </trkpt>
      <trkpt lat="43.42311" lon="6.05225">
        <ele>266.39999389648</ele>
        <time>2017-01-11T14:55:49Z</time>
      </trkpt>
      <trkpt lat="43.42295" lon="6.0522">
        <ele>265.79998779297</ele>
        <time>2017-01-11T14:55:54Z</time>
      </trkpt>
      <trkpt lat="43.42284" lon="6.05216">
        <ele>265.39999389648</ele>
        <time>2017-01-11T14:55:57Z</time>
      </trkpt>
      <trkpt lat="43.42239" lon="6.05214">
        <ele>263.79998779297</ele>
        <time>2017-01-11T14:56:08Z</time>
      </trkpt>
      <trkpt lat="43.42235" lon="6.05214">
        <ele>263.39999389648</ele>
        <time>2017-01-11T14:56:09Z</time>
      </trkpt>
      <trkpt lat="43.42231" lon="6.05212">
        <ele>262.79998779297</ele>
        <time>2017-01-11T14:56:10Z</time>
      </trkpt>
      <trkpt lat="43.42216" lon="6.05197">
        <ele>262.39999389648</ele>
        <time>2017-01-11T14:56:15Z</time>
      </trkpt>
      <trkpt lat="43.42201" lon="6.05189">
        <ele>261.60000610352</ele>
        <time>2017-01-11T14:56:19Z</time>
      </trkpt>
      <trkpt lat="43.42189" lon="6.05181">
        <ele>260.79998779297</ele>
        <time>2017-01-11T14:56:22Z</time>
      </trkpt>
      <trkpt lat="43.42186" lon="6.05178">
        <ele>260.39999389648</ele>
        <time>2017-01-11T14:56:23Z</time>
      </trkpt>
      <trkpt lat="43.42174" lon="6.05169">
        <ele>259.60000610352</ele>
        <time>2017-01-11T14:56:26Z</time>
      </trkpt>
      <trkpt lat="43.42166" lon="6.05163">
        <ele>259.39999389648</ele>
        <time>2017-01-11T14:56:28Z</time>
      </trkpt>
      <trkpt lat="43.42153" lon="6.05155">
        <ele>259</ele>
        <time>2017-01-11T14:56:31Z</time>
      </trkpt>
      <trkpt lat="43.42138" lon="6.05136">
        <ele>258.79998779297</ele>
        <time>2017-01-11T14:56:36Z</time>
      </trkpt>
      <trkpt lat="43.42136" lon="6.05132">
        <ele>258.60000610352</ele>
        <time>2017-01-11T14:56:37Z</time>
      </trkpt>
      <trkpt lat="43.42129" lon="6.05121">
        <ele>258.39999389648</ele>
        <time>2017-01-11T14:56:40Z</time>
      </trkpt>
      <trkpt lat="43.42125" lon="6.05114">
        <ele>258</ele>
        <time>2017-01-11T14:56:45Z</time>
      </trkpt>
      <trkpt lat="43.42112" lon="6.05112">
        <ele>257.39999389648</ele>
        <time>2017-01-11T14:56:50Z</time>
      </trkpt>
      <trkpt lat="43.42094" lon="6.05112">
        <ele>256.20001220703</ele>
        <time>2017-01-11T14:56:55Z</time>
      </trkpt>
      <trkpt lat="43.42068" lon="6.0511">
        <ele>255</ele>
        <time>2017-01-11T14:57:00Z</time>
      </trkpt>
      <trkpt lat="43.42044" lon="6.05114">
        <ele>253.80000305176</ele>
        <time>2017-01-11T14:57:04Z</time>
      </trkpt>
      <trkpt lat="43.42026" lon="6.05119">
        <ele>252.39999389648</ele>
        <time>2017-01-11T14:57:07Z</time>
      </trkpt>
      <trkpt lat="43.41966" lon="6.05131">
        <ele>251</ele>
        <time>2017-01-11T14:57:17Z</time>
      </trkpt>
      <trkpt lat="43.41946" lon="6.0514">
        <ele>249.80000305176</ele>
        <time>2017-01-11T14:57:20Z</time>
      </trkpt>
      <trkpt lat="43.41918" lon="6.05154">
        <ele>248.39999389648</ele>
        <time>2017-01-11T14:57:24Z</time>
      </trkpt>
      <trkpt lat="43.41897" lon="6.05163">
        <ele>247.39999389648</ele>
        <time>2017-01-11T14:57:27Z</time>
      </trkpt>
      <trkpt lat="43.41881" lon="6.05167">
        <ele>246.39999389648</ele>
        <time>2017-01-11T14:57:29Z</time>
      </trkpt>
      <trkpt lat="43.41867" lon="6.05176">
        <ele>245.19999694824</ele>
        <time>2017-01-11T14:57:31Z</time>
      </trkpt>
      <trkpt lat="43.41858" lon="6.05178">
        <ele>244.60000610352</ele>
        <time>2017-01-11T14:57:32Z</time>
      </trkpt>
      <trkpt lat="43.41849" lon="6.05178">
        <ele>244.19999694824</ele>
        <time>2017-01-11T14:57:33Z</time>
      </trkpt>
      <trkpt lat="43.41824" lon="6.0518">
        <ele>242.60000610352</ele>
        <time>2017-01-11T14:57:36Z</time>
      </trkpt>
      <trkpt lat="43.41805" lon="6.05179">
        <ele>241.60000610352</ele>
        <time>2017-01-11T14:57:38Z</time>
      </trkpt>
      <trkpt lat="43.41788" lon="6.05178">
        <ele>240.39999389648</ele>
        <time>2017-01-11T14:57:40Z</time>
      </trkpt>
      <trkpt lat="43.41771" lon="6.05176">
        <ele>239.19999694824</ele>
        <time>2017-01-11T14:57:42Z</time>
      </trkpt>
      <trkpt lat="43.41748" lon="6.05173">
        <ele>238.19999694824</ele>
        <time>2017-01-11T14:57:45Z</time>
      </trkpt>
      <trkpt lat="43.41743" lon="6.05171">
        <ele>238</ele>
        <time>2017-01-11T14:57:46Z</time>
      </trkpt>
      <trkpt lat="43.41736" lon="6.0516">
        <ele>238</ele>
        <time>2017-01-11T14:57:48Z</time>
      </trkpt>
      <trkpt lat="43.41735" lon="6.05132">
        <ele>237.80000305176</ele>
        <time>2017-01-11T14:57:52Z</time>
      </trkpt>
      <trkpt lat="43.41735" lon="6.05125">
        <ele>237.80000305176</ele>
        <time>2017-01-11T14:57:53Z</time>
      </trkpt>
      <trkpt lat="43.41735" lon="6.05112">
        <ele>237.39999389648</ele>
        <time>2017-01-11T14:57:55Z</time>
      </trkpt>
      <trkpt lat="43.4173" lon="6.05103">
        <ele>237.19999694824</ele>
        <time>2017-01-11T14:57:57Z</time>
      </trkpt>
      <trkpt lat="43.41726" lon="6.05102">
        <ele>237</ele>
        <time>2017-01-11T14:57:58Z</time>
      </trkpt>
      <trkpt lat="43.41718" lon="6.05103">
        <ele>236.80000305176</ele>
        <time>2017-01-11T14:58:00Z</time>
      </trkpt>
      <trkpt lat="43.41708" lon="6.05107">
        <ele>236</ele>
        <time>2017-01-11T14:58:02Z</time>
      </trkpt>
      <trkpt lat="43.41699" lon="6.05114">
        <ele>234.60000610352</ele>
        <time>2017-01-11T14:58:04Z</time>
      </trkpt>
      <trkpt lat="43.41682" lon="6.05131">
        <ele>233.39999389648</ele>
        <time>2017-01-11T14:58:08Z</time>
      </trkpt>
      <trkpt lat="43.4167" lon="6.05144">
        <ele>232.60000610352</ele>
        <time>2017-01-11T14:58:11Z</time>
      </trkpt>
      <trkpt lat="43.41665" lon="6.05147">
        <ele>232</ele>
        <time>2017-01-11T14:58:12Z</time>
      </trkpt>
      <trkpt lat="43.41655" lon="6.05151">
        <ele>230.39999389648</ele>
        <time>2017-01-11T14:58:14Z</time>
      </trkpt>
      <trkpt lat="43.41645" lon="6.05154">
        <ele>229.39999389648</ele>
        <time>2017-01-11T14:58:16Z</time>
      </trkpt>
      <trkpt lat="43.41636" lon="6.05156">
        <ele>228.80000305176</ele>
        <time>2017-01-11T14:58:18Z</time>
      </trkpt>
      <trkpt lat="43.4162" lon="6.05156">
        <ele>227.80000305176</ele>
        <time>2017-01-11T14:58:21Z</time>
      </trkpt>
      <trkpt lat="43.41615" lon="6.05157">
        <ele>227.39999389648</ele>
        <time>2017-01-11T14:58:22Z</time>
      </trkpt>
      <trkpt lat="43.41603" lon="6.05158">
        <ele>226.80000305176</ele>
        <time>2017-01-11T14:58:24Z</time>
      </trkpt>
      <trkpt lat="43.41598" lon="6.05157">
        <ele>226.60000610352</ele>
        <time>2017-01-11T14:58:25Z</time>
      </trkpt>
      <trkpt lat="43.41578" lon="6.05154">
        <ele>225.80000305176</ele>
        <time>2017-01-11T14:58:28Z</time>
      </trkpt>
      <trkpt lat="43.4157" lon="6.05153">
        <ele>225.39999389648</ele>
        <time>2017-01-11T14:58:29Z</time>
      </trkpt>
      <trkpt lat="43.41555" lon="6.0515">
        <ele>224</ele>
        <time>2017-01-11T14:58:31Z</time>
      </trkpt>
      <trkpt lat="43.41539" lon="6.05149">
        <ele>223.19999694824</ele>
        <time>2017-01-11T14:58:33Z</time>
      </trkpt>
      <trkpt lat="43.41531" lon="6.0515">
        <ele>222.39999389648</ele>
        <time>2017-01-11T14:58:34Z</time>
      </trkpt>
      <trkpt lat="43.41515" lon="6.05152">
        <ele>221</ele>
        <time>2017-01-11T14:58:36Z</time>
      </trkpt>
      <trkpt lat="43.41492" lon="6.05161">
        <ele>221.19999694824</ele>
        <time>2017-01-11T14:58:50Z</time>
      </trkpt>
      <trkpt lat="43.41492" lon="6.05161">
        <ele>221.19999694824</ele>
        <time>2017-01-11T14:58:56Z</time>
      </trkpt>
      <trkpt lat="43.41492" lon="6.05162">
        <ele>221.39999389648</ele>
        <time>2017-01-11T14:59:01Z</time>
      </trkpt>
      <trkpt lat="43.41492" lon="6.05161">
        <ele>221</ele>
        <time>2017-01-11T14:59:30Z</time>
      </trkpt>
      <trkpt lat="43.41493" lon="6.05162">
        <ele>221</ele>
        <time>2017-01-11T14:59:55Z</time>
      </trkpt>
      <trkpt lat="43.41493" lon="6.05161">
        <ele>220.60000610352</ele>
        <time>2017-01-11T15:01:07Z</time>
      </trkpt>
      <trkpt lat="43.41493" lon="6.05161">
        <ele>220.60000610352</ele>
        <time>2017-01-11T15:01:17Z</time>
      </trkpt>
      <trkpt lat="43.41493" lon="6.05161">
        <ele>220.60000610352</ele>
        <time>2017-01-11T15:01:34Z</time>
      </trkpt>
      <trkpt lat="43.41492" lon="6.0516">
        <ele>220.60000610352</ele>
        <time>2017-01-11T15:01:44Z</time>
      </trkpt>
      <trkpt lat="43.41492" lon="6.0516">
        <ele>220.60000610352</ele>
        <time>2017-01-11T15:01:50Z</time>
      </trkpt>
      <trkpt lat="43.41492" lon="6.05161">
        <ele>220.60000610352</ele>
        <time>2017-01-11T15:02:00Z</time>
      </trkpt>
      <trkpt lat="43.41493" lon="6.05161">
        <ele>220.60000610352</ele>
        <time>2017-01-11T15:02:05Z</time>
      </trkpt>
      <trkpt lat="43.4149" lon="6.05168">
        <ele>220.60000610352</ele>
        <time>2017-01-11T15:02:22Z</time>
      </trkpt>
      <trkpt lat="43.41493" lon="6.05176">
        <ele>220.80000305176</ele>
        <time>2017-01-11T15:02:26Z</time>
      </trkpt>
      <trkpt lat="43.41523" lon="6.05241">
        <ele>221.39999389648</ele>
        <time>2017-01-11T15:02:48Z</time>
      </trkpt>
      <trkpt lat="43.41531" lon="6.05258">
        <ele>222</ele>
        <time>2017-01-11T15:02:53Z</time>
      </trkpt>
      <trkpt lat="43.41532" lon="6.05261">
        <ele>222</ele>
        <time>2017-01-11T15:02:54Z</time>
      </trkpt>
      <trkpt lat="43.41537" lon="6.05277">
        <ele>222.39999389648</ele>
        <time>2017-01-11T15:02:58Z</time>
      </trkpt>
      <trkpt lat="43.41553" lon="6.05331">
        <ele>223.19999694824</ele>
        <time>2017-01-11T15:03:11Z</time>
      </trkpt>
      <trkpt lat="43.41568" lon="6.05368">
        <ele>224.19999694824</ele>
        <time>2017-01-11T15:03:20Z</time>
      </trkpt>
      <trkpt lat="43.4159" lon="6.05437">
        <ele>224.60000610352</ele>
        <time>2017-01-11T15:03:35Z</time>
      </trkpt>
      <trkpt lat="43.41612" lon="6.0551">
        <ele>224.80000305176</ele>
        <time>2017-01-11T15:03:49Z</time>
      </trkpt>
      <trkpt lat="43.41626" lon="6.05569">
        <ele>225</ele>
        <time>2017-01-11T15:04:01Z</time>
      </trkpt>
      <trkpt lat="43.41631" lon="6.05592">
        <ele>225.19999694824</ele>
        <time>2017-01-11T15:04:06Z</time>
      </trkpt>
      <trkpt lat="43.4164" lon="6.05668">
        <ele>226</ele>
        <time>2017-01-11T15:04:22Z</time>
      </trkpt>
      <trkpt lat="43.41641" lon="6.05677">
        <ele>226.39999389648</ele>
        <time>2017-01-11T15:04:24Z</time>
      </trkpt>
      <trkpt lat="43.41644" lon="6.05754">
        <ele>226.80000305176</ele>
        <time>2017-01-11T15:04:40Z</time>
      </trkpt>
      <trkpt lat="43.41642" lon="6.05822">
        <ele>226.39999389648</ele>
        <time>2017-01-11T15:04:54Z</time>
      </trkpt>
      <trkpt lat="43.4164" lon="6.05857">
        <ele>226.19999694824</ele>
        <time>2017-01-11T15:05:01Z</time>
      </trkpt>
      <trkpt lat="43.41639" lon="6.05877">
        <ele>226</ele>
        <time>2017-01-11T15:05:05Z</time>
      </trkpt>
      <trkpt lat="43.41631" lon="6.05938">
        <ele>225.19999694824</ele>
        <time>2017-01-11T15:05:16Z</time>
      </trkpt>
      <trkpt lat="43.41624" lon="6.05984">
        <ele>224.19999694824</ele>
        <time>2017-01-11T15:05:23Z</time>
      </trkpt>
      <trkpt lat="43.4162" lon="6.06015">
        <ele>223</ele>
        <time>2017-01-11T15:05:27Z</time>
      </trkpt>
      <trkpt lat="43.41616" lon="6.0604">
        <ele>221.80000305176</ele>
        <time>2017-01-11T15:05:30Z</time>
      </trkpt>
      <trkpt lat="43.41614" lon="6.06077">
        <ele>220.60000610352</ele>
        <time>2017-01-11T15:05:34Z</time>
      </trkpt>
      <trkpt lat="43.41615" lon="6.06086">
        <ele>220.19999694824</ele>
        <time>2017-01-11T15:05:35Z</time>
      </trkpt>
      <trkpt lat="43.41618" lon="6.06103">
        <ele>219.80000305176</ele>
        <time>2017-01-11T15:05:37Z</time>
      </trkpt>
      <trkpt lat="43.41626" lon="6.06124">
        <ele>220</ele>
        <time>2017-01-11T15:05:41Z</time>
      </trkpt>
      <trkpt lat="43.41626" lon="6.06129">
        <ele>220.19999694824</ele>
        <time>2017-01-11T15:05:42Z</time>
      </trkpt>
      <trkpt lat="43.41609" lon="6.06154">
        <ele>220.39999389648</ele>
        <time>2017-01-11T15:05:48Z</time>
      </trkpt>
      <trkpt lat="43.41603" lon="6.06163">
        <ele>220.39999389648</ele>
        <time>2017-01-11T15:05:50Z</time>
      </trkpt>
      <trkpt lat="43.416" lon="6.06195">
        <ele>221.19999694824</ele>
        <time>2017-01-11T15:05:57Z</time>
      </trkpt>
      <trkpt lat="43.41603" lon="6.06202">
        <ele>221.60000610352</ele>
        <time>2017-01-11T15:05:59Z</time>
      </trkpt>
      <trkpt lat="43.41607" lon="6.06207">
        <ele>222</ele>
        <time>2017-01-11T15:06:01Z</time>
      </trkpt>
      <trkpt lat="43.41607" lon="6.06214">
        <ele>222.19999694824</ele>
        <time>2017-01-11T15:06:03Z</time>
      </trkpt>
      <trkpt lat="43.41607" lon="6.06222">
        <ele>222.60000610352</ele>
        <time>2017-01-11T15:06:06Z</time>
      </trkpt>
      <trkpt lat="43.41606" lon="6.06224">
        <ele>222.60000610352</ele>
        <time>2017-01-11T15:06:08Z</time>
      </trkpt>
      <trkpt lat="43.41606" lon="6.06225">
        <ele>222.80000305176</ele>
        <time>2017-01-11T15:06:10Z</time>
      </trkpt>
      <trkpt lat="43.41603" lon="6.06232">
        <ele>222.39999389648</ele>
        <time>2017-01-11T15:06:27Z</time>
      </trkpt>
      <trkpt lat="43.41601" lon="6.06239">
        <ele>222.39999389648</ele>
        <time>2017-01-11T15:06:30Z</time>
      </trkpt>
      <trkpt lat="43.416" lon="6.06247">
        <ele>222.39999389648</ele>
        <time>2017-01-11T15:06:34Z</time>
      </trkpt>
      <trkpt lat="43.416" lon="6.06251">
        <ele>222.39999389648</ele>
        <time>2017-01-11T15:06:36Z</time>
      </trkpt>
      <trkpt lat="43.41592" lon="6.06258">
        <ele>222</ele>
        <time>2017-01-11T15:06:40Z</time>
      </trkpt>
      <trkpt lat="43.41583" lon="6.0627">
        <ele>221.60000610352</ele>
        <time>2017-01-11T15:06:44Z</time>
      </trkpt>
      <trkpt lat="43.41583" lon="6.06281">
        <ele>221.39999389648</ele>
        <time>2017-01-11T15:06:46Z</time>
      </trkpt>
      <trkpt lat="43.41584" lon="6.063">
        <ele>220.60000610352</ele>
        <time>2017-01-11T15:06:49Z</time>
      </trkpt>
      <trkpt lat="43.4158" lon="6.06314">
        <ele>220</ele>
        <time>2017-01-11T15:06:51Z</time>
      </trkpt>
      <trkpt lat="43.41573" lon="6.06326">
        <ele>219.39999389648</ele>
        <time>2017-01-11T15:06:53Z</time>
      </trkpt>
      <trkpt lat="43.41569" lon="6.06332">
        <ele>219.19999694824</ele>
        <time>2017-01-11T15:06:54Z</time>
      </trkpt>
      <trkpt lat="43.41557" lon="6.06356">
        <ele>217.80000305176</ele>
        <time>2017-01-11T15:06:57Z</time>
      </trkpt>
      <trkpt lat="43.41555" lon="6.06365">
        <ele>217.39999389648</ele>
        <time>2017-01-11T15:06:58Z</time>
      </trkpt>
      <trkpt lat="43.4155" lon="6.06386">
        <ele>216.60000610352</ele>
        <time>2017-01-11T15:07:00Z</time>
      </trkpt>
      <trkpt lat="43.41546" lon="6.06408">
        <ele>215.39999389648</ele>
        <time>2017-01-11T15:07:02Z</time>
      </trkpt>
      <trkpt lat="43.41542" lon="6.0644">
        <ele>214</ele>
        <time>2017-01-11T15:07:05Z</time>
      </trkpt>
      <trkpt lat="43.41541" lon="6.06459">
        <ele>213</ele>
        <time>2017-01-11T15:07:08Z</time>
      </trkpt>
      <trkpt lat="43.41539" lon="6.06461">
        <ele>213</ele>
        <time>2017-01-11T15:07:09Z</time>
      </trkpt>
      <trkpt lat="43.41531" lon="6.0647">
        <ele>212</ele>
        <time>2017-01-11T15:07:12Z</time>
      </trkpt>
      <trkpt lat="43.41529" lon="6.06475">
        <ele>211.60000610352</ele>
        <time>2017-01-11T15:07:13Z</time>
      </trkpt>
      <trkpt lat="43.41525" lon="6.06495">
        <ele>211.19999694824</ele>
        <time>2017-01-11T15:07:16Z</time>
      </trkpt>
      <trkpt lat="43.41521" lon="6.06507">
        <ele>211.19999694824</ele>
        <time>2017-01-11T15:07:18Z</time>
      </trkpt>
      <trkpt lat="43.4152" lon="6.06519">
        <ele>211.19999694824</ele>
        <time>2017-01-11T15:07:20Z</time>
      </trkpt>
      <trkpt lat="43.41513" lon="6.06563">
        <ele>210.80000305176</ele>
        <time>2017-01-11T15:07:26Z</time>
      </trkpt>
      <trkpt lat="43.41513" lon="6.06571">
        <ele>210.80000305176</ele>
        <time>2017-01-11T15:07:27Z</time>
      </trkpt>
      <trkpt lat="43.41507" lon="6.06611">
        <ele>210.80000305176</ele>
        <time>2017-01-11T15:07:32Z</time>
      </trkpt>
      <trkpt lat="43.41506" lon="6.06619">
        <ele>210.60000610352</ele>
        <time>2017-01-11T15:07:33Z</time>
      </trkpt>
      <trkpt lat="43.41496" lon="6.06684">
        <ele>210.60000610352</ele>
        <time>2017-01-11T15:07:41Z</time>
      </trkpt>
      <trkpt lat="43.41496" lon="6.06717">
        <ele>210.19999694824</ele>
        <time>2017-01-11T15:07:45Z</time>
      </trkpt>
      <trkpt lat="43.41496" lon="6.06733">
        <ele>209.80000305176</ele>
        <time>2017-01-11T15:07:47Z</time>
      </trkpt>
      <trkpt lat="43.41495" lon="6.0675">
        <ele>209.19999694824</ele>
        <time>2017-01-11T15:07:49Z</time>
      </trkpt>
      <trkpt lat="43.4149" lon="6.06783">
        <ele>207.80000305176</ele>
        <time>2017-01-11T15:07:53Z</time>
      </trkpt>
      <trkpt lat="43.41478" lon="6.06823">
        <ele>207</ele>
        <time>2017-01-11T15:07:58Z</time>
      </trkpt>
      <trkpt lat="43.41475" lon="6.06831">
        <ele>207.19999694824</ele>
        <time>2017-01-11T15:07:59Z</time>
      </trkpt>
      <trkpt lat="43.41473" lon="6.06845">
        <ele>207.39999389648</ele>
        <time>2017-01-11T15:08:01Z</time>
      </trkpt>
      <trkpt lat="43.41473" lon="6.06865">
        <ele>207.80000305176</ele>
        <time>2017-01-11T15:08:05Z</time>
      </trkpt>
      <trkpt lat="43.41474" lon="6.06872">
        <ele>208.19999694824</ele>
        <time>2017-01-11T15:08:08Z</time>
      </trkpt>
      <trkpt lat="43.41475" lon="6.06892">
        <ele>208.39999389648</ele>
        <time>2017-01-11T15:08:23Z</time>
      </trkpt>
      <trkpt lat="43.41468" lon="6.06926">
        <ele>208.19999694824</ele>
        <time>2017-01-11T15:08:32Z</time>
      </trkpt>
      <trkpt lat="43.41512" lon="6.0697">
        <ele>207.80000305176</ele>
        <time>2017-01-11T15:08:48Z</time>
      </trkpt>
      <trkpt lat="43.41549" lon="6.06973">
        <ele>207.19999694824</ele>
        <time>2017-01-11T15:09:01Z</time>
      </trkpt>
      <trkpt lat="43.41553" lon="6.06972">
        <ele>207.19999694824</ele>
        <time>2017-01-11T15:09:02Z</time>
      </trkpt>
      <trkpt lat="43.41568" lon="6.06973">
        <ele>208</ele>
        <time>2017-01-11T15:09:07Z</time>
      </trkpt>
      <trkpt lat="43.41574" lon="6.06997">
        <ele>208.19999694824</ele>
        <time>2017-01-11T15:09:14Z</time>
      </trkpt>
      <trkpt lat="43.41575" lon="6.07007">
        <ele>208.19999694824</ele>
        <time>2017-01-11T15:09:17Z</time>
      </trkpt>
      <trkpt lat="43.41577" lon="6.07024">
        <ele>208.39999389648</ele>
        <time>2017-01-11T15:09:23Z</time>
      </trkpt>
      <trkpt lat="43.41579" lon="6.07029">
        <ele>208.60000610352</ele>
        <time>2017-01-11T15:09:30Z</time>
      </trkpt>
      <trkpt lat="43.41579" lon="6.07029">
        <ele>208.60000610352</ele>
        <time>2017-01-11T15:09:35Z</time>
      </trkpt>
      <trkpt lat="43.41579" lon="6.0703">
        <ele>208.39999389648</ele>
        <time>2017-01-11T15:10:13Z</time>
      </trkpt>
    </trkseg>
  </trk>
</gpx>